<?xml version="1.0" encoding="UTF-8" standalone="no" ?><gpx xmlns="http://www.topografix.com/GPX/1/1" xmlns:gpxx="http://www.garmin.com/xmlschemas/GpxExtensions/v3" xmlns:wptx1="http://www.garmin.com/xmlschemas/WaypointExtension/v1" xmlns:gpxtpx="http://www.garmin.com/xmlschemas/TrackPointExtension/v1" creator="GuideVTT.com" version="1.1" xmlns:xsi="http://www.w3.org/2001/XMLSchema-instance" xsi:schemaLocation="http://www.topografix.com/GPX/1/1 http://www.topografix.com/GPX/1/1/gpx.xsd http://www.garmin.com/xmlschemas/GpxExtensions/v3 http://www8.garmin.com/xmlschemas/GpxExtensionsv3.xsd http://www.garmin.com/xmlschemas/WaypointExtension/v1 http://www8.garmin.com/xmlschemas/WaypointExtensionv1.xsd http://www.garmin.com/xmlschemas/TrackPointExtension/v1 http://www.garmin.com/xmlschemas/TrackPointExtensionv1.xsd">
<metadata><link href="http://www.garmin.com"><text>Garmin International</text></link><time>2013-06-22T15:13:50Z</time></metadata>
<trk><name>laupen.gpx</name><extensions><gpxx:TrackExtension><gpxx:DisplayColor>Cyan</gpxx:DisplayColor></gpxx:TrackExtension></extensions><trkseg>
<trkpt lat="46.77239900" lon="7.19215900"><ele></ele><time>2014-7-3T0:50:41Z</time></trkpt>
<trkpt lat="46.77239900" lon="7.19215900"><ele></ele><time>2014-7-3T0:50:44Z</time></trkpt>
<trkpt lat="46.77238900" lon="7.19214200"><ele></ele><time>2014-7-3T0:50:47Z</time></trkpt>
<trkpt lat="46.77259900" lon="7.19217200"><ele></ele><time>2014-7-3T0:50:50Z</time></trkpt>
<trkpt lat="46.77264800" lon="7.19235600"><ele></ele><time>2014-7-3T0:50:53Z</time></trkpt>
<trkpt lat="46.77269600" lon="7.19260200"><ele></ele><time>2014-7-3T0:50:56Z</time></trkpt>
<trkpt lat="46.77297100" lon="7.19319200"><ele></ele><time>2014-7-3T0:50:59Z</time></trkpt>
<trkpt lat="46.77288700" lon="7.19332900"><ele></ele><time>2014-7-3T0:51:2Z</time></trkpt>
<trkpt lat="46.77232200" lon="7.19380500"><ele></ele><time>2014-7-3T0:51:5Z</time></trkpt>
<trkpt lat="46.77182700" lon="7.19448400"><ele></ele><time>2014-7-3T0:51:8Z</time></trkpt>
<trkpt lat="46.77139700" lon="7.19518600"><ele></ele><time>2014-7-3T0:51:11Z</time></trkpt>
<trkpt lat="46.77128500" lon="7.19535700"><ele></ele><time>2014-7-3T0:51:14Z</time></trkpt>
<trkpt lat="46.77099200" lon="7.19571400"><ele></ele><time>2014-7-3T0:51:17Z</time></trkpt>
<trkpt lat="46.77091700" lon="7.19582600"><ele></ele><time>2014-7-3T0:51:20Z</time></trkpt>
<trkpt lat="46.77072900" lon="7.19620000"><ele></ele><time>2014-7-3T0:51:23Z</time></trkpt>
<trkpt lat="46.77067600" lon="7.19630700"><ele></ele><time>2014-7-3T0:51:26Z</time></trkpt>
<trkpt lat="46.77052800" lon="7.19652800"><ele></ele><time>2014-7-3T0:51:29Z</time></trkpt>
<trkpt lat="46.77053000" lon="7.19687200"><ele></ele><time>2014-7-3T0:51:32Z</time></trkpt>
<trkpt lat="46.77043600" lon="7.19697200"><ele></ele><time>2014-7-3T0:51:35Z</time></trkpt>
<trkpt lat="46.77038900" lon="7.19711800"><ele></ele><time>2014-7-3T0:51:38Z</time></trkpt>
<trkpt lat="46.77038500" lon="7.19733300"><ele></ele><time>2014-7-3T0:51:41Z</time></trkpt>
<trkpt lat="46.77037100" lon="7.19733200"><ele></ele><time>2014-7-3T0:51:44Z</time></trkpt>
<trkpt lat="46.77047700" lon="7.19757900"><ele></ele><time>2014-7-3T0:51:47Z</time></trkpt>
<trkpt lat="46.77058200" lon="7.19776900"><ele></ele><time>2014-7-3T0:51:50Z</time></trkpt>
<trkpt lat="46.77090000" lon="7.19822300"><ele></ele><time>2014-7-3T0:51:53Z</time></trkpt>
<trkpt lat="46.77094900" lon="7.19833400"><ele></ele><time>2014-7-3T0:51:56Z</time></trkpt>
<trkpt lat="46.77129900" lon="7.19896400"><ele></ele><time>2014-7-3T0:51:59Z</time></trkpt>
<trkpt lat="46.77175300" lon="7.19951900"><ele></ele><time>2014-7-3T0:52:2Z</time></trkpt>
<trkpt lat="46.77199700" lon="7.19991000"><ele></ele><time>2014-7-3T0:52:5Z</time></trkpt>
<trkpt lat="46.77235700" lon="7.20053300"><ele></ele><time>2014-7-3T0:52:8Z</time></trkpt>
<trkpt lat="46.77274600" lon="7.20124200"><ele></ele><time>2014-7-3T0:52:11Z</time></trkpt>
<trkpt lat="46.77282800" lon="7.20142200"><ele></ele><time>2014-7-3T0:52:14Z</time></trkpt>
<trkpt lat="46.77271100" lon="7.20169200"><ele></ele><time>2014-7-3T0:52:17Z</time></trkpt>
<trkpt lat="46.77226600" lon="7.20215000"><ele></ele><time>2014-7-3T0:52:20Z</time></trkpt>
<trkpt lat="46.77214100" lon="7.20249900"><ele></ele><time>2014-7-3T0:52:23Z</time></trkpt>
<trkpt lat="46.77187900" lon="7.20399200"><ele></ele><time>2014-7-3T0:52:26Z</time></trkpt>
<trkpt lat="46.77184600" lon="7.20422500"><ele></ele><time>2014-7-3T0:52:29Z</time></trkpt>
<trkpt lat="46.77166700" lon="7.20451300"><ele></ele><time>2014-7-3T0:52:32Z</time></trkpt>
<trkpt lat="46.77106300" lon="7.20473700"><ele></ele><time>2014-7-3T0:52:35Z</time></trkpt>
<trkpt lat="46.77085800" lon="7.20474600"><ele></ele><time>2014-7-3T0:52:38Z</time></trkpt>
<trkpt lat="46.77067200" lon="7.20517200"><ele></ele><time>2014-7-3T0:52:41Z</time></trkpt>
<trkpt lat="46.77068800" lon="7.20619200"><ele></ele><time>2014-7-3T0:52:44Z</time></trkpt>
<trkpt lat="46.77067300" lon="7.20678800"><ele></ele><time>2014-7-3T0:52:47Z</time></trkpt>
<trkpt lat="46.77058000" lon="7.20717500"><ele></ele><time>2014-7-3T0:52:50Z</time></trkpt>
<trkpt lat="46.77053600" lon="7.20757500"><ele></ele><time>2014-7-3T0:52:53Z</time></trkpt>
<trkpt lat="46.77050600" lon="7.20786800"><ele></ele><time>2014-7-3T0:52:56Z</time></trkpt>
<trkpt lat="46.77043900" lon="7.20855500"><ele></ele><time>2014-7-3T0:52:59Z</time></trkpt>
<trkpt lat="46.77032400" lon="7.20928600"><ele></ele><time>2014-7-3T0:53:2Z</time></trkpt>
<trkpt lat="46.76998800" lon="7.20971400"><ele></ele><time>2014-7-3T0:53:5Z</time></trkpt>
<trkpt lat="46.76953800" lon="7.21011300"><ele></ele><time>2014-7-3T0:53:8Z</time></trkpt>
<trkpt lat="46.76914500" lon="7.21036200"><ele></ele><time>2014-7-3T0:53:11Z</time></trkpt>
<trkpt lat="46.76861900" lon="7.21103900"><ele></ele><time>2014-7-3T0:53:14Z</time></trkpt>
<trkpt lat="46.76841800" lon="7.21188200"><ele></ele><time>2014-7-3T0:53:17Z</time></trkpt>
<trkpt lat="46.76820400" lon="7.21256000"><ele></ele><time>2014-7-3T0:53:20Z</time></trkpt>
<trkpt lat="46.76805500" lon="7.21306400"><ele></ele><time>2014-7-3T0:53:23Z</time></trkpt>
<trkpt lat="46.76779400" lon="7.21383300"><ele></ele><time>2014-7-3T0:53:26Z</time></trkpt>
<trkpt lat="46.76746300" lon="7.21479000"><ele></ele><time>2014-7-3T0:53:29Z</time></trkpt>
<trkpt lat="46.76705200" lon="7.21624600"><ele></ele><time>2014-7-3T0:53:32Z</time></trkpt>
<trkpt lat="46.76698200" lon="7.21663800"><ele></ele><time>2014-7-3T0:53:35Z</time></trkpt>
<trkpt lat="46.76697300" lon="7.21668700"><ele></ele><time>2014-7-3T0:53:38Z</time></trkpt>
<trkpt lat="46.76688000" lon="7.21708600"><ele></ele><time>2014-7-3T0:53:41Z</time></trkpt>
<trkpt lat="46.76680300" lon="7.21725900"><ele></ele><time>2014-7-3T0:53:44Z</time></trkpt>
<trkpt lat="46.76658200" lon="7.21742600"><ele></ele><time>2014-7-3T0:53:47Z</time></trkpt>
<trkpt lat="46.76572700" lon="7.21811900"><ele></ele><time>2014-7-3T0:53:50Z</time></trkpt>
<trkpt lat="46.76509500" lon="7.21881700"><ele></ele><time>2014-7-3T0:53:53Z</time></trkpt>
<trkpt lat="46.76492900" lon="7.21898900"><ele></ele><time>2014-7-3T0:53:56Z</time></trkpt>
<trkpt lat="46.76493200" lon="7.21923200"><ele></ele><time>2014-7-3T0:53:59Z</time></trkpt>
<trkpt lat="46.76509100" lon="7.21974500"><ele></ele><time>2014-7-3T0:54:2Z</time></trkpt>
<trkpt lat="46.76519200" lon="7.22008800"><ele></ele><time>2014-7-3T0:54:5Z</time></trkpt>
<trkpt lat="46.76553100" lon="7.22118500"><ele></ele><time>2014-7-3T0:54:8Z</time></trkpt>
<trkpt lat="46.76562000" lon="7.22141200"><ele></ele><time>2014-7-3T0:54:11Z</time></trkpt>
<trkpt lat="46.76604200" lon="7.22193800"><ele></ele><time>2014-7-3T0:54:14Z</time></trkpt>
<trkpt lat="46.76670500" lon="7.22286500"><ele></ele><time>2014-7-3T0:54:17Z</time></trkpt>
<trkpt lat="46.76696900" lon="7.22346600"><ele></ele><time>2014-7-3T0:54:20Z</time></trkpt>
<trkpt lat="46.76725200" lon="7.22426400"><ele></ele><time>2014-7-3T0:54:23Z</time></trkpt>
<trkpt lat="46.76732400" lon="7.22489400"><ele></ele><time>2014-7-3T0:54:26Z</time></trkpt>
<trkpt lat="46.76734300" lon="7.22499000"><ele></ele><time>2014-7-3T0:54:29Z</time></trkpt>
<trkpt lat="46.76746200" lon="7.22557100"><ele></ele><time>2014-7-3T0:54:32Z</time></trkpt>
<trkpt lat="46.76766600" lon="7.22616000"><ele></ele><time>2014-7-3T0:54:35Z</time></trkpt>
<trkpt lat="46.76812300" lon="7.22705000"><ele></ele><time>2014-7-3T0:54:38Z</time></trkpt>
<trkpt lat="46.76815600" lon="7.22707400"><ele></ele><time>2014-7-3T0:54:41Z</time></trkpt>
<trkpt lat="46.76829600" lon="7.22697500"><ele></ele><time>2014-7-3T0:54:44Z</time></trkpt>
<trkpt lat="46.76845400" lon="7.22679200"><ele></ele><time>2014-7-3T0:54:47Z</time></trkpt>
<trkpt lat="46.76908500" lon="7.22573900"><ele></ele><time>2014-7-3T0:54:50Z</time></trkpt>
<trkpt lat="46.76958600" lon="7.22479000"><ele></ele><time>2014-7-3T0:54:53Z</time></trkpt>
<trkpt lat="46.76989300" lon="7.22475100"><ele></ele><time>2014-7-3T0:54:56Z</time></trkpt>
<trkpt lat="46.77070400" lon="7.22534500"><ele></ele><time>2014-7-3T0:54:59Z</time></trkpt>
<trkpt lat="46.77108000" lon="7.22566600"><ele></ele><time>2014-7-3T0:55:2Z</time></trkpt>
<trkpt lat="46.77110600" lon="7.22568600"><ele></ele><time>2014-7-3T0:55:5Z</time></trkpt>
<trkpt lat="46.77115500" lon="7.22572600"><ele></ele><time>2014-7-3T0:55:8Z</time></trkpt>
<trkpt lat="46.77128600" lon="7.22581500"><ele></ele><time>2014-7-3T0:55:11Z</time></trkpt>
<trkpt lat="46.77147100" lon="7.22593100"><ele></ele><time>2014-7-3T0:55:14Z</time></trkpt>
<trkpt lat="46.77202400" lon="7.22606500"><ele></ele><time>2014-7-3T0:55:17Z</time></trkpt>
<trkpt lat="46.77269400" lon="7.22611300"><ele></ele><time>2014-7-3T0:55:20Z</time></trkpt>
<trkpt lat="46.77278700" lon="7.22612600"><ele></ele><time>2014-7-3T0:55:23Z</time></trkpt>
<trkpt lat="46.77289300" lon="7.22596600"><ele></ele><time>2014-7-3T0:55:26Z</time></trkpt>
<trkpt lat="46.77303000" lon="7.22565100"><ele></ele><time>2014-7-3T0:55:29Z</time></trkpt>
<trkpt lat="46.77313600" lon="7.22535900"><ele></ele><time>2014-7-3T0:55:32Z</time></trkpt>
<trkpt lat="46.77342000" lon="7.22457700"><ele></ele><time>2014-7-3T0:55:35Z</time></trkpt>
<trkpt lat="46.77351600" lon="7.22418900"><ele></ele><time>2014-7-3T0:55:38Z</time></trkpt>
<trkpt lat="46.77355200" lon="7.22348600"><ele></ele><time>2014-7-3T0:55:41Z</time></trkpt>
<trkpt lat="46.77353300" lon="7.22291300"><ele></ele><time>2014-7-3T0:55:44Z</time></trkpt>
<trkpt lat="46.77356200" lon="7.22252400"><ele></ele><time>2014-7-3T0:55:47Z</time></trkpt>
<trkpt lat="46.77356200" lon="7.22252400"><ele></ele><time>2014-7-3T0:55:50Z</time></trkpt>
<trkpt lat="46.77356200" lon="7.22252400"><ele></ele><time>2014-7-3T0:55:53Z</time></trkpt>
<trkpt lat="46.77356200" lon="7.22252400"><ele></ele><time>2014-7-3T0:55:56Z</time></trkpt>
<trkpt lat="46.77356200" lon="7.22252400"><ele></ele><time>2014-7-3T0:55:59Z</time></trkpt>
<trkpt lat="46.77484500" lon="7.22062000"><ele></ele><time>2014-7-3T0:56:2Z</time></trkpt>
<trkpt lat="46.77531800" lon="7.22031200"><ele></ele><time>2014-7-3T0:56:5Z</time></trkpt>
<trkpt lat="46.77621100" lon="7.21969700"><ele></ele><time>2014-7-3T0:56:8Z</time></trkpt>
<trkpt lat="46.77648500" lon="7.21899300"><ele></ele><time>2014-7-3T0:56:11Z</time></trkpt>
<trkpt lat="46.77670400" lon="7.21895800"><ele></ele><time>2014-7-3T0:56:14Z</time></trkpt>
<trkpt lat="46.77674100" lon="7.21900200"><ele></ele><time>2014-7-3T0:56:17Z</time></trkpt>
<trkpt lat="46.77735300" lon="7.21972100"><ele></ele><time>2014-7-3T0:56:20Z</time></trkpt>
<trkpt lat="46.77816100" lon="7.22014800"><ele></ele><time>2014-7-3T0:56:23Z</time></trkpt>
<trkpt lat="46.77905300" lon="7.22062700"><ele></ele><time>2014-7-3T0:56:26Z</time></trkpt>
<trkpt lat="46.77979700" lon="7.22153800"><ele></ele><time>2014-7-3T0:56:29Z</time></trkpt>
<trkpt lat="46.78061000" lon="7.22266100"><ele></ele><time>2014-7-3T0:56:32Z</time></trkpt>
<trkpt lat="46.78077800" lon="7.22294000"><ele></ele><time>2014-7-3T0:56:35Z</time></trkpt>
<trkpt lat="46.78100600" lon="7.22335000"><ele></ele><time>2014-7-3T0:56:38Z</time></trkpt>
<trkpt lat="46.78151400" lon="7.22425300"><ele></ele><time>2014-7-3T0:56:41Z</time></trkpt>
<trkpt lat="46.78143100" lon="7.22461700"><ele></ele><time>2014-7-3T0:56:44Z</time></trkpt>
<trkpt lat="46.78141500" lon="7.22480900"><ele></ele><time>2014-7-3T0:56:47Z</time></trkpt>
<trkpt lat="46.78134900" lon="7.22614600"><ele></ele><time>2014-7-3T0:56:50Z</time></trkpt>
<trkpt lat="46.78138600" lon="7.22760700"><ele></ele><time>2014-7-3T0:56:53Z</time></trkpt>
<trkpt lat="46.78139800" lon="7.22850100"><ele></ele><time>2014-7-3T0:56:56Z</time></trkpt>
<trkpt lat="46.78125300" lon="7.22909400"><ele></ele><time>2014-7-3T0:56:59Z</time></trkpt>
<trkpt lat="46.78127300" lon="7.22951300"><ele></ele><time>2014-7-3T0:57:2Z</time></trkpt>
<trkpt lat="46.78160600" lon="7.23110900"><ele></ele><time>2014-7-3T0:57:5Z</time></trkpt>
<trkpt lat="46.78145100" lon="7.23164200"><ele></ele><time>2014-7-3T0:57:8Z</time></trkpt>
<trkpt lat="46.78129500" lon="7.23181100"><ele></ele><time>2014-7-3T0:57:11Z</time></trkpt>
<trkpt lat="46.78060200" lon="7.23262500"><ele></ele><time>2014-7-3T0:57:14Z</time></trkpt>
<trkpt lat="46.78054800" lon="7.23311700"><ele></ele><time>2014-7-3T0:57:17Z</time></trkpt>
<trkpt lat="46.78063000" lon="7.23309600"><ele></ele><time>2014-7-3T0:57:20Z</time></trkpt>
<trkpt lat="46.78075900" lon="7.23333500"><ele></ele><time>2014-7-3T0:57:23Z</time></trkpt>
<trkpt lat="46.78079500" lon="7.23339100"><ele></ele><time>2014-7-3T0:57:26Z</time></trkpt>
<trkpt lat="46.78098000" lon="7.23369000"><ele></ele><time>2014-7-3T0:57:29Z</time></trkpt>
<trkpt lat="46.78129000" lon="7.23420000"><ele></ele><time>2014-7-3T0:57:32Z</time></trkpt>
<trkpt lat="46.78200000" lon="7.23524000"><ele></ele><time>2014-7-3T0:57:35Z</time></trkpt>
<trkpt lat="46.78223000" lon="7.23597900"><ele></ele><time>2014-7-3T0:57:38Z</time></trkpt>
<trkpt lat="46.78226300" lon="7.23607200"><ele></ele><time>2014-7-3T0:57:41Z</time></trkpt>
<trkpt lat="46.78237400" lon="7.23633400"><ele></ele><time>2014-7-3T0:57:44Z</time></trkpt>
<trkpt lat="46.78283000" lon="7.23689800"><ele></ele><time>2014-7-3T0:57:47Z</time></trkpt>
<trkpt lat="46.78289200" lon="7.23697000"><ele></ele><time>2014-7-3T0:57:50Z</time></trkpt>
<trkpt lat="46.78332200" lon="7.23745100"><ele></ele><time>2014-7-3T0:57:53Z</time></trkpt>
<trkpt lat="46.78355100" lon="7.23783300"><ele></ele><time>2014-7-3T0:57:56Z</time></trkpt>
<trkpt lat="46.78380400" lon="7.23825600"><ele></ele><time>2014-7-3T0:57:59Z</time></trkpt>
<trkpt lat="46.78398000" lon="7.23850200"><ele></ele><time>2014-7-3T0:58:2Z</time></trkpt>
<trkpt lat="46.78430300" lon="7.23879600"><ele></ele><time>2014-7-3T0:58:5Z</time></trkpt>
<trkpt lat="46.78450300" lon="7.23925700"><ele></ele><time>2014-7-3T0:58:8Z</time></trkpt>
<trkpt lat="46.78481600" lon="7.24033400"><ele></ele><time>2014-7-3T0:58:11Z</time></trkpt>
<trkpt lat="46.78483200" lon="7.24078300"><ele></ele><time>2014-7-3T0:58:14Z</time></trkpt>
<trkpt lat="46.78483600" lon="7.24110700"><ele></ele><time>2014-7-3T0:58:17Z</time></trkpt>
<trkpt lat="46.78484200" lon="7.24142500"><ele></ele><time>2014-7-3T0:58:20Z</time></trkpt>
<trkpt lat="46.78505500" lon="7.24257200"><ele></ele><time>2014-7-3T0:58:23Z</time></trkpt>
<trkpt lat="46.78513600" lon="7.24322400"><ele></ele><time>2014-7-3T0:58:26Z</time></trkpt>
<trkpt lat="46.78510200" lon="7.24370400"><ele></ele><time>2014-7-3T0:58:29Z</time></trkpt>
<trkpt lat="46.78500600" lon="7.24413700"><ele></ele><time>2014-7-3T0:58:32Z</time></trkpt>
<trkpt lat="46.78517000" lon="7.24489800"><ele></ele><time>2014-7-3T0:58:35Z</time></trkpt>
<trkpt lat="46.78515600" lon="7.24511400"><ele></ele><time>2014-7-3T0:58:38Z</time></trkpt>
<trkpt lat="46.78508800" lon="7.24689900"><ele></ele><time>2014-7-3T0:58:41Z</time></trkpt>
<trkpt lat="46.78512600" lon="7.24723600"><ele></ele><time>2014-7-3T0:58:44Z</time></trkpt>
<trkpt lat="46.78493800" lon="7.24809500"><ele></ele><time>2014-7-3T0:58:47Z</time></trkpt>
<trkpt lat="46.78462700" lon="7.24855500"><ele></ele><time>2014-7-3T0:58:50Z</time></trkpt>
<trkpt lat="46.78450600" lon="7.24887500"><ele></ele><time>2014-7-3T0:58:53Z</time></trkpt>
<trkpt lat="46.78442300" lon="7.24904500"><ele></ele><time>2014-7-3T0:58:56Z</time></trkpt>
<trkpt lat="46.78437800" lon="7.24912800"><ele></ele><time>2014-7-3T0:58:59Z</time></trkpt>
<trkpt lat="46.78414800" lon="7.24947900"><ele></ele><time>2014-7-3T0:59:2Z</time></trkpt>
<trkpt lat="46.78407700" lon="7.24951700"><ele></ele><time>2014-7-3T0:59:5Z</time></trkpt>
<trkpt lat="46.78416300" lon="7.24967300"><ele></ele><time>2014-7-3T0:59:8Z</time></trkpt>
<trkpt lat="46.78403400" lon="7.24986100"><ele></ele><time>2014-7-3T0:59:11Z</time></trkpt>
<trkpt lat="46.78454700" lon="7.25078100"><ele></ele><time>2014-7-3T0:59:14Z</time></trkpt>
<trkpt lat="46.78489900" lon="7.25095500"><ele></ele><time>2014-7-3T0:59:17Z</time></trkpt>
<trkpt lat="46.78503300" lon="7.25114000"><ele></ele><time>2014-7-3T0:59:20Z</time></trkpt>
<trkpt lat="46.78526500" lon="7.25142300"><ele></ele><time>2014-7-3T0:59:23Z</time></trkpt>
<trkpt lat="46.78538300" lon="7.25178400"><ele></ele><time>2014-7-3T0:59:26Z</time></trkpt>
<trkpt lat="46.78542500" lon="7.25207200"><ele></ele><time>2014-7-3T0:59:29Z</time></trkpt>
<trkpt lat="46.78560700" lon="7.25350700"><ele></ele><time>2014-7-3T0:59:32Z</time></trkpt>
<trkpt lat="46.78562400" lon="7.25367400"><ele></ele><time>2014-7-3T0:59:35Z</time></trkpt>
<trkpt lat="46.78560900" lon="7.25396100"><ele></ele><time>2014-7-3T0:59:38Z</time></trkpt>
<trkpt lat="46.78552600" lon="7.25426800"><ele></ele><time>2014-7-3T0:59:41Z</time></trkpt>
<trkpt lat="46.78543300" lon="7.25462500"><ele></ele><time>2014-7-3T0:59:44Z</time></trkpt>
<trkpt lat="46.78539100" lon="7.25487100"><ele></ele><time>2014-7-3T0:59:47Z</time></trkpt>
<trkpt lat="46.78535800" lon="7.25527300"><ele></ele><time>2014-7-3T0:59:50Z</time></trkpt>
<trkpt lat="46.78533900" lon="7.25556800"><ele></ele><time>2014-7-3T0:59:53Z</time></trkpt>
<trkpt lat="46.78528100" lon="7.25645500"><ele></ele><time>2014-7-3T0:59:56Z</time></trkpt>
<trkpt lat="46.78540500" lon="7.25710700"><ele></ele><time>2014-7-3T0:59:59Z</time></trkpt>
<trkpt lat="46.78548400" lon="7.25724800"><ele></ele><time>2014-7-3T1:0:2Z</time></trkpt>
<trkpt lat="46.78559400" lon="7.25735500"><ele></ele><time>2014-7-3T1:0:5Z</time></trkpt>
<trkpt lat="46.78584400" lon="7.25757200"><ele></ele><time>2014-7-3T1:0:8Z</time></trkpt>
<trkpt lat="46.78640600" lon="7.25847500"><ele></ele><time>2014-7-3T1:0:11Z</time></trkpt>
<trkpt lat="46.78642800" lon="7.25855900"><ele></ele><time>2014-7-3T1:0:14Z</time></trkpt>
<trkpt lat="46.78645000" lon="7.25896200"><ele></ele><time>2014-7-3T1:0:17Z</time></trkpt>
<trkpt lat="46.78642700" lon="7.25925400"><ele></ele><time>2014-7-3T1:0:20Z</time></trkpt>
<trkpt lat="46.78649400" lon="7.25991000"><ele></ele><time>2014-7-3T1:0:23Z</time></trkpt>
<trkpt lat="46.78650600" lon="7.26082600"><ele></ele><time>2014-7-3T1:0:26Z</time></trkpt>
<trkpt lat="46.78630200" lon="7.26150400"><ele></ele><time>2014-7-3T1:0:29Z</time></trkpt>
<trkpt lat="46.78634700" lon="7.26169900"><ele></ele><time>2014-7-3T1:0:32Z</time></trkpt>
<trkpt lat="46.78638300" lon="7.26176100"><ele></ele><time>2014-7-3T1:0:35Z</time></trkpt>
<trkpt lat="46.78663300" lon="7.26213200"><ele></ele><time>2014-7-3T1:0:38Z</time></trkpt>
<trkpt lat="46.78668100" lon="7.26258400"><ele></ele><time>2014-7-3T1:0:41Z</time></trkpt>
<trkpt lat="46.78646300" lon="7.26281100"><ele></ele><time>2014-7-3T1:0:44Z</time></trkpt>
<trkpt lat="46.78595600" lon="7.26310100"><ele></ele><time>2014-7-3T1:0:47Z</time></trkpt>
<trkpt lat="46.78576400" lon="7.26322400"><ele></ele><time>2014-7-3T1:0:50Z</time></trkpt>
<trkpt lat="46.78557600" lon="7.26347800"><ele></ele><time>2014-7-3T1:0:53Z</time></trkpt>
<trkpt lat="46.78561700" lon="7.26382300"><ele></ele><time>2014-7-3T1:0:56Z</time></trkpt>
<trkpt lat="46.78586300" lon="7.26398700"><ele></ele><time>2014-7-3T1:0:59Z</time></trkpt>
<trkpt lat="46.78596100" lon="7.26397600"><ele></ele><time>2014-7-3T1:1:2Z</time></trkpt>
<trkpt lat="46.78616700" lon="7.26394300"><ele></ele><time>2014-7-3T1:1:5Z</time></trkpt>
<trkpt lat="46.78667800" lon="7.26423800"><ele></ele><time>2014-7-3T1:1:8Z</time></trkpt>
<trkpt lat="46.78685700" lon="7.26446100"><ele></ele><time>2014-7-3T1:1:11Z</time></trkpt>
<trkpt lat="46.78715300" lon="7.26525500"><ele></ele><time>2014-7-3T1:1:14Z</time></trkpt>
<trkpt lat="46.78743500" lon="7.26539000"><ele></ele><time>2014-7-3T1:1:17Z</time></trkpt>
<trkpt lat="46.78757300" lon="7.26535300"><ele></ele><time>2014-7-3T1:1:20Z</time></trkpt>
<trkpt lat="46.78787900" lon="7.26525500"><ele></ele><time>2014-7-3T1:1:23Z</time></trkpt>
<trkpt lat="46.78799300" lon="7.26525200"><ele></ele><time>2014-7-3T1:1:26Z</time></trkpt>
<trkpt lat="46.78821000" lon="7.26537400"><ele></ele><time>2014-7-3T1:1:29Z</time></trkpt>
<trkpt lat="46.78845600" lon="7.26573600"><ele></ele><time>2014-7-3T1:1:32Z</time></trkpt>
<trkpt lat="46.78863300" lon="7.26598500"><ele></ele><time>2014-7-3T1:1:35Z</time></trkpt>
<trkpt lat="46.78906500" lon="7.26626500"><ele></ele><time>2014-7-3T1:1:38Z</time></trkpt>
<trkpt lat="46.78918900" lon="7.26625100"><ele></ele><time>2014-7-3T1:1:41Z</time></trkpt>
<trkpt lat="46.78960100" lon="7.26623600"><ele></ele><time>2014-7-3T1:1:44Z</time></trkpt>
<trkpt lat="46.78986000" lon="7.26669200"><ele></ele><time>2014-7-3T1:1:47Z</time></trkpt>
<trkpt lat="46.78998400" lon="7.26708600"><ele></ele><time>2014-7-3T1:1:50Z</time></trkpt>
<trkpt lat="46.79018500" lon="7.26755600"><ele></ele><time>2014-7-3T1:1:53Z</time></trkpt>
<trkpt lat="46.79020500" lon="7.26758200"><ele></ele><time>2014-7-3T1:1:56Z</time></trkpt>
<trkpt lat="46.79042600" lon="7.26789700"><ele></ele><time>2014-7-3T1:1:59Z</time></trkpt>
<trkpt lat="46.79060100" lon="7.26824500"><ele></ele><time>2014-7-3T1:2:2Z</time></trkpt>
<trkpt lat="46.79065900" lon="7.26836500"><ele></ele><time>2014-7-3T1:2:5Z</time></trkpt>
<trkpt lat="46.79090000" lon="7.26866700"><ele></ele><time>2014-7-3T1:2:8Z</time></trkpt>
<trkpt lat="46.79092800" lon="7.26898100"><ele></ele><time>2014-7-3T1:2:11Z</time></trkpt>
<trkpt lat="46.79096600" lon="7.26943000"><ele></ele><time>2014-7-3T1:2:14Z</time></trkpt>
<trkpt lat="46.79091600" lon="7.26975500"><ele></ele><time>2014-7-3T1:2:17Z</time></trkpt>
<trkpt lat="46.79081000" lon="7.27021700"><ele></ele><time>2014-7-3T1:2:20Z</time></trkpt>
<trkpt lat="46.79071600" lon="7.27066700"><ele></ele><time>2014-7-3T1:2:23Z</time></trkpt>
<trkpt lat="46.79061000" lon="7.27106600"><ele></ele><time>2014-7-3T1:2:26Z</time></trkpt>
<trkpt lat="46.79050900" lon="7.27141300"><ele></ele><time>2014-7-3T1:2:29Z</time></trkpt>
<trkpt lat="46.79030600" lon="7.27186400"><ele></ele><time>2014-7-3T1:2:32Z</time></trkpt>
<trkpt lat="46.79014800" lon="7.27222600"><ele></ele><time>2014-7-3T1:2:35Z</time></trkpt>
<trkpt lat="46.78990800" lon="7.27273800"><ele></ele><time>2014-7-3T1:2:38Z</time></trkpt>
<trkpt lat="46.78989200" lon="7.27276200"><ele></ele><time>2014-7-3T1:2:41Z</time></trkpt>
<trkpt lat="46.78968000" lon="7.27301800"><ele></ele><time>2014-7-3T1:2:44Z</time></trkpt>
<trkpt lat="46.78929600" lon="7.27331900"><ele></ele><time>2014-7-3T1:2:47Z</time></trkpt>
<trkpt lat="46.78902500" lon="7.27375900"><ele></ele><time>2014-7-3T1:2:50Z</time></trkpt>
<trkpt lat="46.78918900" lon="7.27419400"><ele></ele><time>2014-7-3T1:2:53Z</time></trkpt>
<trkpt lat="46.78952900" lon="7.27505500"><ele></ele><time>2014-7-3T1:2:56Z</time></trkpt>
<trkpt lat="46.79000800" lon="7.27628000"><ele></ele><time>2014-7-3T1:2:59Z</time></trkpt>
<trkpt lat="46.79016100" lon="7.27710000"><ele></ele><time>2014-7-3T1:3:2Z</time></trkpt>
<trkpt lat="46.79025300" lon="7.27758400"><ele></ele><time>2014-7-3T1:3:5Z</time></trkpt>
<trkpt lat="46.79079800" lon="7.27840900"><ele></ele><time>2014-7-3T1:3:8Z</time></trkpt>
<trkpt lat="46.79151600" lon="7.27912300"><ele></ele><time>2014-7-3T1:3:11Z</time></trkpt>
<trkpt lat="46.79177800" lon="7.27938500"><ele></ele><time>2014-7-3T1:3:14Z</time></trkpt>
<trkpt lat="46.79195600" lon="7.27956900"><ele></ele><time>2014-7-3T1:3:17Z</time></trkpt>
<trkpt lat="46.79220200" lon="7.27982900"><ele></ele><time>2014-7-3T1:3:20Z</time></trkpt>
<trkpt lat="46.79225500" lon="7.27988700"><ele></ele><time>2014-7-3T1:3:23Z</time></trkpt>
<trkpt lat="46.79279000" lon="7.28061300"><ele></ele><time>2014-7-3T1:3:26Z</time></trkpt>
<trkpt lat="46.79353900" lon="7.28209300"><ele></ele><time>2014-7-3T1:3:29Z</time></trkpt>
<trkpt lat="46.79373400" lon="7.28246300"><ele></ele><time>2014-7-3T1:3:32Z</time></trkpt>
<trkpt lat="46.79386500" lon="7.28290100"><ele></ele><time>2014-7-3T1:3:35Z</time></trkpt>
<trkpt lat="46.79388000" lon="7.28344400"><ele></ele><time>2014-7-3T1:3:38Z</time></trkpt>
<trkpt lat="46.79388800" lon="7.28373700"><ele></ele><time>2014-7-3T1:3:41Z</time></trkpt>
<trkpt lat="46.79386200" lon="7.28432300"><ele></ele><time>2014-7-3T1:3:44Z</time></trkpt>
<trkpt lat="46.79390400" lon="7.28458600"><ele></ele><time>2014-7-3T1:3:47Z</time></trkpt>
<trkpt lat="46.79384200" lon="7.28486000"><ele></ele><time>2014-7-3T1:3:50Z</time></trkpt>
<trkpt lat="46.79406600" lon="7.28551800"><ele></ele><time>2014-7-3T1:3:53Z</time></trkpt>
<trkpt lat="46.79413400" lon="7.28554700"><ele></ele><time>2014-7-3T1:3:56Z</time></trkpt>
<trkpt lat="46.79442100" lon="7.28566000"><ele></ele><time>2014-7-3T1:3:59Z</time></trkpt>
<trkpt lat="46.79532700" lon="7.28654600"><ele></ele><time>2014-7-3T1:4:2Z</time></trkpt>
<trkpt lat="46.79551500" lon="7.28669800"><ele></ele><time>2014-7-3T1:4:5Z</time></trkpt>
<trkpt lat="46.79564600" lon="7.28680200"><ele></ele><time>2014-7-3T1:4:8Z</time></trkpt>
<trkpt lat="46.79648700" lon="7.28743100"><ele></ele><time>2014-7-3T1:4:11Z</time></trkpt>
<trkpt lat="46.79682500" lon="7.28782400"><ele></ele><time>2014-7-3T1:4:14Z</time></trkpt>
<trkpt lat="46.79698200" lon="7.28817400"><ele></ele><time>2014-7-3T1:4:17Z</time></trkpt>
<trkpt lat="46.79705400" lon="7.28844500"><ele></ele><time>2014-7-3T1:4:20Z</time></trkpt>
<trkpt lat="46.79713900" lon="7.28888800"><ele></ele><time>2014-7-3T1:4:23Z</time></trkpt>
<trkpt lat="46.79724900" lon="7.28950000"><ele></ele><time>2014-7-3T1:4:26Z</time></trkpt>
<trkpt lat="46.79731500" lon="7.28976800"><ele></ele><time>2014-7-3T1:4:29Z</time></trkpt>
<trkpt lat="46.79750800" lon="7.29019700"><ele></ele><time>2014-7-3T1:4:32Z</time></trkpt>
<trkpt lat="46.79835600" lon="7.29175900"><ele></ele><time>2014-7-3T1:4:35Z</time></trkpt>
<trkpt lat="46.79859700" lon="7.29217500"><ele></ele><time>2014-7-3T1:4:38Z</time></trkpt>
<trkpt lat="46.79887100" lon="7.29232000"><ele></ele><time>2014-7-3T1:4:41Z</time></trkpt>
<trkpt lat="46.79925000" lon="7.29213700"><ele></ele><time>2014-7-3T1:4:44Z</time></trkpt>
<trkpt lat="46.79955300" lon="7.29187500"><ele></ele><time>2014-7-3T1:4:47Z</time></trkpt>
<trkpt lat="46.80006200" lon="7.29169800"><ele></ele><time>2014-7-3T1:4:50Z</time></trkpt>
<trkpt lat="46.80015100" lon="7.29164000"><ele></ele><time>2014-7-3T1:4:53Z</time></trkpt>
<trkpt lat="46.80023300" lon="7.29157700"><ele></ele><time>2014-7-3T1:4:56Z</time></trkpt>
<trkpt lat="46.80070200" lon="7.29119100"><ele></ele><time>2014-7-3T1:4:59Z</time></trkpt>
<trkpt lat="46.80079600" lon="7.29104500"><ele></ele><time>2014-7-3T1:5:2Z</time></trkpt>
<trkpt lat="46.80101700" lon="7.29031800"><ele></ele><time>2014-7-3T1:5:5Z</time></trkpt>
<trkpt lat="46.80115900" lon="7.28987100"><ele></ele><time>2014-7-3T1:5:8Z</time></trkpt>
<trkpt lat="46.80140600" lon="7.28931100"><ele></ele><time>2014-7-3T1:5:11Z</time></trkpt>
<trkpt lat="46.80157300" lon="7.28895500"><ele></ele><time>2014-7-3T1:5:14Z</time></trkpt>
<trkpt lat="46.80175800" lon="7.28849500"><ele></ele><time>2014-7-3T1:5:17Z</time></trkpt>
<trkpt lat="46.80177900" lon="7.28843000"><ele></ele><time>2014-7-3T1:5:20Z</time></trkpt>
<trkpt lat="46.80188700" lon="7.28809800"><ele></ele><time>2014-7-3T1:5:23Z</time></trkpt>
<trkpt lat="46.80212200" lon="7.28751000"><ele></ele><time>2014-7-3T1:5:26Z</time></trkpt>
<trkpt lat="46.80226500" lon="7.28711400"><ele></ele><time>2014-7-3T1:5:29Z</time></trkpt>
<trkpt lat="46.80298500" lon="7.28632100"><ele></ele><time>2014-7-3T1:5:32Z</time></trkpt>
<trkpt lat="46.80312600" lon="7.28618200"><ele></ele><time>2014-7-3T1:5:35Z</time></trkpt>
<trkpt lat="46.80333700" lon="7.28606400"><ele></ele><time>2014-7-3T1:5:38Z</time></trkpt>
<trkpt lat="46.80414900" lon="7.28577500"><ele></ele><time>2014-7-3T1:5:41Z</time></trkpt>
<trkpt lat="46.80451500" lon="7.28557700"><ele></ele><time>2014-7-3T1:5:44Z</time></trkpt>
<trkpt lat="46.80486900" lon="7.28538200"><ele></ele><time>2014-7-3T1:5:47Z</time></trkpt>
<trkpt lat="46.80490500" lon="7.28536700"><ele></ele><time>2014-7-3T1:5:50Z</time></trkpt>
<trkpt lat="46.80509100" lon="7.28522700"><ele></ele><time>2014-7-3T1:5:53Z</time></trkpt>
<trkpt lat="46.80513400" lon="7.28518300"><ele></ele><time>2014-7-3T1:5:56Z</time></trkpt>
<trkpt lat="46.80554500" lon="7.28481700"><ele></ele><time>2014-7-3T1:5:59Z</time></trkpt>
<trkpt lat="46.80587700" lon="7.28467500"><ele></ele><time>2014-7-3T1:6:2Z</time></trkpt>
<trkpt lat="46.80606900" lon="7.28469100"><ele></ele><time>2014-7-3T1:6:5Z</time></trkpt>
<trkpt lat="46.80637100" lon="7.28475100"><ele></ele><time>2014-7-3T1:6:8Z</time></trkpt>
<trkpt lat="46.80671900" lon="7.28477700"><ele></ele><time>2014-7-3T1:6:11Z</time></trkpt>
<trkpt lat="46.80674400" lon="7.28477800"><ele></ele><time>2014-7-3T1:6:14Z</time></trkpt>
<trkpt lat="46.80704900" lon="7.28471200"><ele></ele><time>2014-7-3T1:6:17Z</time></trkpt>
<trkpt lat="46.80760700" lon="7.28431600"><ele></ele><time>2014-7-3T1:6:20Z</time></trkpt>
<trkpt lat="46.80794600" lon="7.28382600"><ele></ele><time>2014-7-3T1:6:23Z</time></trkpt>
<trkpt lat="46.80834600" lon="7.28319700"><ele></ele><time>2014-7-3T1:6:26Z</time></trkpt>
<trkpt lat="46.80858500" lon="7.28280800"><ele></ele><time>2014-7-3T1:6:29Z</time></trkpt>
<trkpt lat="46.80866200" lon="7.28271700"><ele></ele><time>2014-7-3T1:6:32Z</time></trkpt>
<trkpt lat="46.80894800" lon="7.28266000"><ele></ele><time>2014-7-3T1:6:35Z</time></trkpt>
<trkpt lat="46.80936400" lon="7.28267600"><ele></ele><time>2014-7-3T1:6:38Z</time></trkpt>
<trkpt lat="46.80958100" lon="7.28262800"><ele></ele><time>2014-7-3T1:6:41Z</time></trkpt>
<trkpt lat="46.80996100" lon="7.28266800"><ele></ele><time>2014-7-3T1:6:44Z</time></trkpt>
<trkpt lat="46.81047700" lon="7.28277100"><ele></ele><time>2014-7-3T1:6:47Z</time></trkpt>
<trkpt lat="46.81068000" lon="7.28280700"><ele></ele><time>2014-7-3T1:6:50Z</time></trkpt>
<trkpt lat="46.81093400" lon="7.28271800"><ele></ele><time>2014-7-3T1:6:53Z</time></trkpt>
<trkpt lat="46.81117200" lon="7.28225800"><ele></ele><time>2014-7-3T1:6:56Z</time></trkpt>
<trkpt lat="46.81134900" lon="7.28235200"><ele></ele><time>2014-7-3T1:6:59Z</time></trkpt>
<trkpt lat="46.81150700" lon="7.28262200"><ele></ele><time>2014-7-3T1:7:2Z</time></trkpt>
<trkpt lat="46.81181500" lon="7.28295300"><ele></ele><time>2014-7-3T1:7:5Z</time></trkpt>
<trkpt lat="46.81213300" lon="7.28308700"><ele></ele><time>2014-7-3T1:7:8Z</time></trkpt>
<trkpt lat="46.81249500" lon="7.28317800"><ele></ele><time>2014-7-3T1:7:11Z</time></trkpt>
<trkpt lat="46.81264700" lon="7.28323400"><ele></ele><time>2014-7-3T1:7:14Z</time></trkpt>
<trkpt lat="46.81327800" lon="7.28315000"><ele></ele><time>2014-7-3T1:7:17Z</time></trkpt>
<trkpt lat="46.81366600" lon="7.28333600"><ele></ele><time>2014-7-3T1:7:20Z</time></trkpt>
<trkpt lat="46.81372300" lon="7.28343000"><ele></ele><time>2014-7-3T1:7:23Z</time></trkpt>
<trkpt lat="46.81383200" lon="7.28362900"><ele></ele><time>2014-7-3T1:7:26Z</time></trkpt>
<trkpt lat="46.81399400" lon="7.28393700"><ele></ele><time>2014-7-3T1:7:29Z</time></trkpt>
<trkpt lat="46.81407200" lon="7.28418300"><ele></ele><time>2014-7-3T1:7:32Z</time></trkpt>
<trkpt lat="46.81410200" lon="7.28447000"><ele></ele><time>2014-7-3T1:7:35Z</time></trkpt>
<trkpt lat="46.81413300" lon="7.28493700"><ele></ele><time>2014-7-3T1:7:38Z</time></trkpt>
<trkpt lat="46.81427700" lon="7.28555500"><ele></ele><time>2014-7-3T1:7:41Z</time></trkpt>
<trkpt lat="46.81431000" lon="7.28571000"><ele></ele><time>2014-7-3T1:7:44Z</time></trkpt>
<trkpt lat="46.81435100" lon="7.28602400"><ele></ele><time>2014-7-3T1:7:47Z</time></trkpt>
<trkpt lat="46.81462600" lon="7.28762000"><ele></ele><time>2014-7-3T1:7:50Z</time></trkpt>
<trkpt lat="46.81465900" lon="7.28775000"><ele></ele><time>2014-7-3T1:7:53Z</time></trkpt>
<trkpt lat="46.81483900" lon="7.28804100"><ele></ele><time>2014-7-3T1:7:56Z</time></trkpt>
<trkpt lat="46.81505400" lon="7.28811000"><ele></ele><time>2014-7-3T1:7:59Z</time></trkpt>
<trkpt lat="46.81560700" lon="7.28846400"><ele></ele><time>2014-7-3T1:8:2Z</time></trkpt>
<trkpt lat="46.81587700" lon="7.28940000"><ele></ele><time>2014-7-3T1:8:5Z</time></trkpt>
<trkpt lat="46.81587000" lon="7.28956600"><ele></ele><time>2014-7-3T1:8:8Z</time></trkpt>
<trkpt lat="46.81582000" lon="7.29037300"><ele></ele><time>2014-7-3T1:8:11Z</time></trkpt>
<trkpt lat="46.81589600" lon="7.29101900"><ele></ele><time>2014-7-3T1:8:14Z</time></trkpt>
<trkpt lat="46.81593200" lon="7.29117100"><ele></ele><time>2014-7-3T1:8:17Z</time></trkpt>
<trkpt lat="46.81601400" lon="7.29194500"><ele></ele><time>2014-7-3T1:8:20Z</time></trkpt>
<trkpt lat="46.81628000" lon="7.29272400"><ele></ele><time>2014-7-3T1:8:23Z</time></trkpt>
<trkpt lat="46.81659000" lon="7.29302300"><ele></ele><time>2014-7-3T1:8:26Z</time></trkpt>
<trkpt lat="46.81667700" lon="7.29310000"><ele></ele><time>2014-7-3T1:8:29Z</time></trkpt>
<trkpt lat="46.81697100" lon="7.29338300"><ele></ele><time>2014-7-3T1:8:32Z</time></trkpt>
<trkpt lat="46.81733400" lon="7.29364400"><ele></ele><time>2014-7-3T1:8:35Z</time></trkpt>
<trkpt lat="46.81797100" lon="7.29365100"><ele></ele><time>2014-7-3T1:8:38Z</time></trkpt>
<trkpt lat="46.81845200" lon="7.29354200"><ele></ele><time>2014-7-3T1:8:41Z</time></trkpt>
<trkpt lat="46.81854600" lon="7.29348900"><ele></ele><time>2014-7-3T1:8:44Z</time></trkpt>
<trkpt lat="46.81888500" lon="7.29354900"><ele></ele><time>2014-7-3T1:8:47Z</time></trkpt>
<trkpt lat="46.81916200" lon="7.29396400"><ele></ele><time>2014-7-3T1:8:50Z</time></trkpt>
<trkpt lat="46.81930100" lon="7.29450500"><ele></ele><time>2014-7-3T1:8:53Z</time></trkpt>
<trkpt lat="46.81940200" lon="7.29500700"><ele></ele><time>2014-7-3T1:8:56Z</time></trkpt>
<trkpt lat="46.81943700" lon="7.29504800"><ele></ele><time>2014-7-3T1:8:59Z</time></trkpt>
<trkpt lat="46.81950300" lon="7.29511600"><ele></ele><time>2014-7-3T1:9:2Z</time></trkpt>
<trkpt lat="46.81999000" lon="7.29542400"><ele></ele><time>2014-7-3T1:9:5Z</time></trkpt>
<trkpt lat="46.82033000" lon="7.29548700"><ele></ele><time>2014-7-3T1:9:8Z</time></trkpt>
<trkpt lat="46.82058900" lon="7.29538500"><ele></ele><time>2014-7-3T1:9:11Z</time></trkpt>
<trkpt lat="46.82061500" lon="7.29538900"><ele></ele><time>2014-7-3T1:9:14Z</time></trkpt>
<trkpt lat="46.82086800" lon="7.29557000"><ele></ele><time>2014-7-3T1:9:17Z</time></trkpt>
<trkpt lat="46.82121800" lon="7.29617200"><ele></ele><time>2014-7-3T1:9:20Z</time></trkpt>
<trkpt lat="46.82157300" lon="7.29712900"><ele></ele><time>2014-7-3T1:9:23Z</time></trkpt>
<trkpt lat="46.82185600" lon="7.29773700"><ele></ele><time>2014-7-3T1:9:26Z</time></trkpt>
<trkpt lat="46.82221100" lon="7.29877900"><ele></ele><time>2014-7-3T1:9:29Z</time></trkpt>
<trkpt lat="46.82237800" lon="7.29960800"><ele></ele><time>2014-7-3T1:9:32Z</time></trkpt>
<trkpt lat="46.82245900" lon="7.29989400"><ele></ele><time>2014-7-3T1:9:35Z</time></trkpt>
<trkpt lat="46.82249200" lon="7.29998600"><ele></ele><time>2014-7-3T1:9:38Z</time></trkpt>
<trkpt lat="46.82275800" lon="7.30033400"><ele></ele><time>2014-7-3T1:9:41Z</time></trkpt>
<trkpt lat="46.82302600" lon="7.30053600"><ele></ele><time>2014-7-3T1:9:44Z</time></trkpt>
<trkpt lat="46.82421800" lon="7.30114800"><ele></ele><time>2014-7-3T1:9:47Z</time></trkpt>
<trkpt lat="46.82477800" lon="7.30147000"><ele></ele><time>2014-7-3T1:9:50Z</time></trkpt>
<trkpt lat="46.82487500" lon="7.30164300"><ele></ele><time>2014-7-3T1:9:53Z</time></trkpt>
<trkpt lat="46.82497900" lon="7.30184000"><ele></ele><time>2014-7-3T1:9:56Z</time></trkpt>
<trkpt lat="46.82512600" lon="7.30207900"><ele></ele><time>2014-7-3T1:9:59Z</time></trkpt>
<trkpt lat="46.82528200" lon="7.30224200"><ele></ele><time>2014-7-3T1:10:2Z</time></trkpt>
<trkpt lat="46.82555300" lon="7.30278400"><ele></ele><time>2014-7-3T1:10:5Z</time></trkpt>
<trkpt lat="46.82575600" lon="7.30325900"><ele></ele><time>2014-7-3T1:10:8Z</time></trkpt>
<trkpt lat="46.82610300" lon="7.30367400"><ele></ele><time>2014-7-3T1:10:11Z</time></trkpt>
<trkpt lat="46.82629800" lon="7.30395000"><ele></ele><time>2014-7-3T1:10:14Z</time></trkpt>
<trkpt lat="46.82685800" lon="7.30528000"><ele></ele><time>2014-7-3T1:10:17Z</time></trkpt>
<trkpt lat="46.82711400" lon="7.30639200"><ele></ele><time>2014-7-3T1:10:20Z</time></trkpt>
<trkpt lat="46.82710000" lon="7.30715700"><ele></ele><time>2014-7-3T1:10:23Z</time></trkpt>
<trkpt lat="46.82718300" lon="7.30763200"><ele></ele><time>2014-7-3T1:10:26Z</time></trkpt>
<trkpt lat="46.82737900" lon="7.30839700"><ele></ele><time>2014-7-3T1:10:29Z</time></trkpt>
<trkpt lat="46.82735100" lon="7.30989500"><ele></ele><time>2014-7-3T1:10:32Z</time></trkpt>
<trkpt lat="46.82749100" lon="7.31079800"><ele></ele><time>2014-7-3T1:10:35Z</time></trkpt>
<trkpt lat="46.82781600" lon="7.31153000"><ele></ele><time>2014-7-3T1:10:38Z</time></trkpt>
<trkpt lat="46.82806200" lon="7.31186000"><ele></ele><time>2014-7-3T1:10:41Z</time></trkpt>
<trkpt lat="46.82882100" lon="7.31308600"><ele></ele><time>2014-7-3T1:10:44Z</time></trkpt>
<trkpt lat="46.82885600" lon="7.31316600"><ele></ele><time>2014-7-3T1:10:47Z</time></trkpt>
<trkpt lat="46.82895200" lon="7.31326000"><ele></ele><time>2014-7-3T1:10:50Z</time></trkpt>
<trkpt lat="46.82899700" lon="7.31331300"><ele></ele><time>2014-7-3T1:10:53Z</time></trkpt>
<trkpt lat="46.82906700" lon="7.31365100"><ele></ele><time>2014-7-3T1:10:56Z</time></trkpt>
<trkpt lat="46.82904300" lon="7.31405900"><ele></ele><time>2014-7-3T1:10:59Z</time></trkpt>
<trkpt lat="46.82887300" lon="7.31484000"><ele></ele><time>2014-7-3T1:11:2Z</time></trkpt>
<trkpt lat="46.82886000" lon="7.31489400"><ele></ele><time>2014-7-3T1:11:5Z</time></trkpt>
<trkpt lat="46.82921400" lon="7.31688200"><ele></ele><time>2014-7-3T1:11:8Z</time></trkpt>
<trkpt lat="46.82946900" lon="7.31771600"><ele></ele><time>2014-7-3T1:11:11Z</time></trkpt>
<trkpt lat="46.82994700" lon="7.31929000"><ele></ele><time>2014-7-3T1:11:14Z</time></trkpt>
<trkpt lat="46.82998900" lon="7.31954500"><ele></ele><time>2014-7-3T1:11:17Z</time></trkpt>
<trkpt lat="46.82989400" lon="7.32102700"><ele></ele><time>2014-7-3T1:11:20Z</time></trkpt>
<trkpt lat="46.82993600" lon="7.32225800"><ele></ele><time>2014-7-3T1:11:23Z</time></trkpt>
<trkpt lat="46.83009500" lon="7.32398900"><ele></ele><time>2014-7-3T1:11:26Z</time></trkpt>
<trkpt lat="46.83039800" lon="7.32451200"><ele></ele><time>2014-7-3T1:11:29Z</time></trkpt>
<trkpt lat="46.83070700" lon="7.32474200"><ele></ele><time>2014-7-3T1:11:32Z</time></trkpt>
<trkpt lat="46.83149000" lon="7.32496400"><ele></ele><time>2014-7-3T1:11:35Z</time></trkpt>
<trkpt lat="46.83158100" lon="7.32498500"><ele></ele><time>2014-7-3T1:11:38Z</time></trkpt>
<trkpt lat="46.83220000" lon="7.32538900"><ele></ele><time>2014-7-3T1:11:41Z</time></trkpt>
<trkpt lat="46.83252300" lon="7.32550300"><ele></ele><time>2014-7-3T1:11:44Z</time></trkpt>
<trkpt lat="46.83269100" lon="7.32549400"><ele></ele><time>2014-7-3T1:11:47Z</time></trkpt>
<trkpt lat="46.83311500" lon="7.32563400"><ele></ele><time>2014-7-3T1:11:50Z</time></trkpt>
<trkpt lat="46.83336900" lon="7.32572900"><ele></ele><time>2014-7-3T1:11:53Z</time></trkpt>
<trkpt lat="46.83370500" lon="7.32604600"><ele></ele><time>2014-7-3T1:11:56Z</time></trkpt>
<trkpt lat="46.83406700" lon="7.32644600"><ele></ele><time>2014-7-3T1:11:59Z</time></trkpt>
<trkpt lat="46.83432200" lon="7.32664600"><ele></ele><time>2014-7-3T1:12:2Z</time></trkpt>
<trkpt lat="46.83440800" lon="7.32670600"><ele></ele><time>2014-7-3T1:12:5Z</time></trkpt>
<trkpt lat="46.83467700" lon="7.32678500"><ele></ele><time>2014-7-3T1:12:8Z</time></trkpt>
<trkpt lat="46.83485900" lon="7.32687100"><ele></ele><time>2014-7-3T1:12:11Z</time></trkpt>
<trkpt lat="46.83518900" lon="7.32702300"><ele></ele><time>2014-7-3T1:12:14Z</time></trkpt>
<trkpt lat="46.83542400" lon="7.32692500"><ele></ele><time>2014-7-3T1:12:17Z</time></trkpt>
<trkpt lat="46.83647900" lon="7.32659300"><ele></ele><time>2014-7-3T1:12:20Z</time></trkpt>
<trkpt lat="46.83669400" lon="7.32647800"><ele></ele><time>2014-7-3T1:12:23Z</time></trkpt>
<trkpt lat="46.83690500" lon="7.32655000"><ele></ele><time>2014-7-3T1:12:26Z</time></trkpt>
<trkpt lat="46.83771100" lon="7.32617100"><ele></ele><time>2014-7-3T1:12:29Z</time></trkpt>
<trkpt lat="46.83795600" lon="7.32634600"><ele></ele><time>2014-7-3T1:12:32Z</time></trkpt>
<trkpt lat="46.83799300" lon="7.32634400"><ele></ele><time>2014-7-3T1:12:35Z</time></trkpt>
<trkpt lat="46.83806500" lon="7.32634000"><ele></ele><time>2014-7-3T1:12:38Z</time></trkpt>
<trkpt lat="46.83840900" lon="7.32613600"><ele></ele><time>2014-7-3T1:12:41Z</time></trkpt>
<trkpt lat="46.83855800" lon="7.32568900"><ele></ele><time>2014-7-3T1:12:44Z</time></trkpt>
<trkpt lat="46.83872500" lon="7.32546000"><ele></ele><time>2014-7-3T1:12:47Z</time></trkpt>
<trkpt lat="46.83880500" lon="7.32539700"><ele></ele><time>2014-7-3T1:12:50Z</time></trkpt>
<trkpt lat="46.83902200" lon="7.32556500"><ele></ele><time>2014-7-3T1:12:53Z</time></trkpt>
<trkpt lat="46.83932700" lon="7.32546800"><ele></ele><time>2014-7-3T1:12:56Z</time></trkpt>
<trkpt lat="46.83950000" lon="7.32539800"><ele></ele><time>2014-7-3T1:12:59Z</time></trkpt>
<trkpt lat="46.83986700" lon="7.32552100"><ele></ele><time>2014-7-3T1:13:2Z</time></trkpt>
<trkpt lat="46.83986700" lon="7.32552100"><ele></ele><time>2014-7-3T1:13:5Z</time></trkpt>
<trkpt lat="46.84009800" lon="7.32505700"><ele></ele><time>2014-7-3T1:13:8Z</time></trkpt>
<trkpt lat="46.84014900" lon="7.32472700"><ele></ele><time>2014-7-3T1:13:11Z</time></trkpt>
<trkpt lat="46.84017800" lon="7.32435800"><ele></ele><time>2014-7-3T1:13:14Z</time></trkpt>
<trkpt lat="46.84023300" lon="7.32398400"><ele></ele><time>2014-7-3T1:13:17Z</time></trkpt>
<trkpt lat="46.84037900" lon="7.32338900"><ele></ele><time>2014-7-3T1:13:20Z</time></trkpt>
<trkpt lat="46.84074300" lon="7.32277400"><ele></ele><time>2014-7-3T1:13:23Z</time></trkpt>
<trkpt lat="46.84083000" lon="7.32254300"><ele></ele><time>2014-7-3T1:13:26Z</time></trkpt>
<trkpt lat="46.84093200" lon="7.32228900"><ele></ele><time>2014-7-3T1:13:29Z</time></trkpt>
<trkpt lat="46.84098600" lon="7.32217200"><ele></ele><time>2014-7-3T1:13:32Z</time></trkpt>
<trkpt lat="46.84139700" lon="7.32089100"><ele></ele><time>2014-7-3T1:13:35Z</time></trkpt>
<trkpt lat="46.84144100" lon="7.32071900"><ele></ele><time>2014-7-3T1:13:38Z</time></trkpt>
<trkpt lat="46.84176900" lon="7.31965200"><ele></ele><time>2014-7-3T1:13:41Z</time></trkpt>
<trkpt lat="46.84194900" lon="7.31922500"><ele></ele><time>2014-7-3T1:13:44Z</time></trkpt>
<trkpt lat="46.84211800" lon="7.31890800"><ele></ele><time>2014-7-3T1:13:47Z</time></trkpt>
<trkpt lat="46.84237500" lon="7.31857200"><ele></ele><time>2014-7-3T1:13:50Z</time></trkpt>
<trkpt lat="46.84251000" lon="7.31845800"><ele></ele><time>2014-7-3T1:13:53Z</time></trkpt>
<trkpt lat="46.84268700" lon="7.31817000"><ele></ele><time>2014-7-3T1:13:56Z</time></trkpt>
<trkpt lat="46.84286200" lon="7.31801300"><ele></ele><time>2014-7-3T1:13:59Z</time></trkpt>
<trkpt lat="46.84287700" lon="7.31809600"><ele></ele><time>2014-7-3T1:14:2Z</time></trkpt>
<trkpt lat="46.84293100" lon="7.31810900"><ele></ele><time>2014-7-3T1:14:5Z</time></trkpt>
<trkpt lat="46.84325900" lon="7.31813900"><ele></ele><time>2014-7-3T1:14:8Z</time></trkpt>
<trkpt lat="46.84368100" lon="7.31834500"><ele></ele><time>2014-7-3T1:14:11Z</time></trkpt>
<trkpt lat="46.84418000" lon="7.31839500"><ele></ele><time>2014-7-3T1:14:14Z</time></trkpt>
<trkpt lat="46.84423900" lon="7.31846400"><ele></ele><time>2014-7-3T1:14:17Z</time></trkpt>
<trkpt lat="46.84423400" lon="7.31854200"><ele></ele><time>2014-7-3T1:14:20Z</time></trkpt>
<trkpt lat="46.84419100" lon="7.31901600"><ele></ele><time>2014-7-3T1:14:23Z</time></trkpt>
<trkpt lat="46.84425400" lon="7.31972400"><ele></ele><time>2014-7-3T1:14:26Z</time></trkpt>
<trkpt lat="46.84446200" lon="7.32105900"><ele></ele><time>2014-7-3T1:14:29Z</time></trkpt>
<trkpt lat="46.84488500" lon="7.32113200"><ele></ele><time>2014-7-3T1:14:32Z</time></trkpt>
<trkpt lat="46.84515400" lon="7.32090500"><ele></ele><time>2014-7-3T1:14:35Z</time></trkpt>
<trkpt lat="46.84522300" lon="7.32023800"><ele></ele><time>2014-7-3T1:14:38Z</time></trkpt>
<trkpt lat="46.84523100" lon="7.32007000"><ele></ele><time>2014-7-3T1:14:41Z</time></trkpt>
<trkpt lat="46.84522900" lon="7.32010500"><ele></ele><time>2014-7-3T1:14:44Z</time></trkpt>
<trkpt lat="46.84522900" lon="7.32011300"><ele></ele><time>2014-7-3T1:14:47Z</time></trkpt>
<trkpt lat="46.84522900" lon="7.32011600"><ele></ele><time>2014-7-3T1:14:50Z</time></trkpt>
<trkpt lat="46.84523100" lon="7.32007300"><ele></ele><time>2014-7-3T1:14:53Z</time></trkpt>
<trkpt lat="46.84523100" lon="7.32007900"><ele></ele><time>2014-7-3T1:14:56Z</time></trkpt>
<trkpt lat="46.84523100" lon="7.32007100"><ele></ele><time>2014-7-3T1:14:59Z</time></trkpt>
<trkpt lat="46.84523100" lon="7.32007400"><ele></ele><time>2014-7-3T1:15:2Z</time></trkpt>
<trkpt lat="46.84523100" lon="7.32007100"><ele></ele><time>2014-7-3T1:15:5Z</time></trkpt>
<trkpt lat="46.84523100" lon="7.32007200"><ele></ele><time>2014-7-3T1:15:8Z</time></trkpt>
<trkpt lat="46.84523100" lon="7.32007100"><ele></ele><time>2014-7-3T1:15:11Z</time></trkpt>
<trkpt lat="46.84523100" lon="7.32007100"><ele></ele><time>2014-7-3T1:15:14Z</time></trkpt>
<trkpt lat="46.84523100" lon="7.32007200"><ele></ele><time>2014-7-3T1:15:17Z</time></trkpt>
<trkpt lat="46.84523100" lon="7.32007200"><ele></ele><time>2014-7-3T1:15:20Z</time></trkpt>
<trkpt lat="46.84523100" lon="7.32007200"><ele></ele><time>2014-7-3T1:15:23Z</time></trkpt>
<trkpt lat="46.84523100" lon="7.32007000"><ele></ele><time>2014-7-3T1:15:26Z</time></trkpt>
<trkpt lat="46.84523100" lon="7.32007100"><ele></ele><time>2014-7-3T1:15:29Z</time></trkpt>
<trkpt lat="46.84523100" lon="7.32007100"><ele></ele><time>2014-7-3T1:15:32Z</time></trkpt>
<trkpt lat="46.84700000" lon="7.31427500"><ele></ele><time>2014-7-3T1:15:35Z</time></trkpt>
<trkpt lat="46.84719100" lon="7.31418300"><ele></ele><time>2014-7-3T1:15:38Z</time></trkpt>
<trkpt lat="46.84715100" lon="7.31419700"><ele></ele><time>2014-7-3T1:15:41Z</time></trkpt>
<trkpt lat="46.84728100" lon="7.31402900"><ele></ele><time>2014-7-3T1:15:44Z</time></trkpt>
<trkpt lat="46.84741300" lon="7.31381700"><ele></ele><time>2014-7-3T1:15:47Z</time></trkpt>
<trkpt lat="46.84773800" lon="7.31321900"><ele></ele><time>2014-7-3T1:15:50Z</time></trkpt>
<trkpt lat="46.84796600" lon="7.31297200"><ele></ele><time>2014-7-3T1:15:53Z</time></trkpt>
<trkpt lat="46.84817600" lon="7.31281700"><ele></ele><time>2014-7-3T1:15:56Z</time></trkpt>
<trkpt lat="46.84847400" lon="7.31258100"><ele></ele><time>2014-7-3T1:15:59Z</time></trkpt>
<trkpt lat="46.84855200" lon="7.31251900"><ele></ele><time>2014-7-3T1:16:2Z</time></trkpt>
<trkpt lat="46.84880200" lon="7.31216500"><ele></ele><time>2014-7-3T1:16:5Z</time></trkpt>
<trkpt lat="46.84934100" lon="7.31096300"><ele></ele><time>2014-7-3T1:16:8Z</time></trkpt>
<trkpt lat="46.84941700" lon="7.31064900"><ele></ele><time>2014-7-3T1:16:11Z</time></trkpt>
<trkpt lat="46.84949900" lon="7.31065700"><ele></ele><time>2014-7-3T1:16:14Z</time></trkpt>
<trkpt lat="46.84952200" lon="7.31070300"><ele></ele><time>2014-7-3T1:16:17Z</time></trkpt>
<trkpt lat="46.84979500" lon="7.31124600"><ele></ele><time>2014-7-3T1:16:20Z</time></trkpt>
<trkpt lat="46.85011100" lon="7.31185600"><ele></ele><time>2014-7-3T1:16:23Z</time></trkpt>
<trkpt lat="46.85050800" lon="7.31263500"><ele></ele><time>2014-7-3T1:16:26Z</time></trkpt>
<trkpt lat="46.85075000" lon="7.31269000"><ele></ele><time>2014-7-3T1:16:29Z</time></trkpt>
<trkpt lat="46.85164200" lon="7.31204500"><ele></ele><time>2014-7-3T1:16:32Z</time></trkpt>
<trkpt lat="46.85250900" lon="7.31175200"><ele></ele><time>2014-7-3T1:16:35Z</time></trkpt>
<trkpt lat="46.85339700" lon="7.31155400"><ele></ele><time>2014-7-3T1:16:38Z</time></trkpt>
<trkpt lat="46.85410900" lon="7.31091700"><ele></ele><time>2014-7-3T1:16:41Z</time></trkpt>
<trkpt lat="46.85416800" lon="7.31089100"><ele></ele><time>2014-7-3T1:16:44Z</time></trkpt>
<trkpt lat="46.85491500" lon="7.31068200"><ele></ele><time>2014-7-3T1:16:47Z</time></trkpt>
<trkpt lat="46.85515000" lon="7.31055700"><ele></ele><time>2014-7-3T1:16:50Z</time></trkpt>
<trkpt lat="46.85581600" lon="7.31070700"><ele></ele><time>2014-7-3T1:16:53Z</time></trkpt>
<trkpt lat="46.85686600" lon="7.31082500"><ele></ele><time>2014-7-3T1:16:56Z</time></trkpt>
<trkpt lat="46.85760800" lon="7.31055800"><ele></ele><time>2014-7-3T1:16:59Z</time></trkpt>
<trkpt lat="46.85802000" lon="7.31018400"><ele></ele><time>2014-7-3T1:17:2Z</time></trkpt>
<trkpt lat="46.85878300" lon="7.31007400"><ele></ele><time>2014-7-3T1:17:5Z</time></trkpt>
<trkpt lat="46.85938100" lon="7.31050700"><ele></ele><time>2014-7-3T1:17:8Z</time></trkpt>
<trkpt lat="46.85964800" lon="7.31051900"><ele></ele><time>2014-7-3T1:17:11Z</time></trkpt>
<trkpt lat="46.85993700" lon="7.31042900"><ele></ele><time>2014-7-3T1:17:14Z</time></trkpt>
<trkpt lat="46.86017200" lon="7.31042900"><ele></ele><time>2014-7-3T1:17:17Z</time></trkpt>
<trkpt lat="46.86096600" lon="7.31073700"><ele></ele><time>2014-7-3T1:17:20Z</time></trkpt>
<trkpt lat="46.86164400" lon="7.31097500"><ele></ele><time>2014-7-3T1:17:23Z</time></trkpt>
<trkpt lat="46.86201100" lon="7.31094100"><ele></ele><time>2014-7-3T1:17:26Z</time></trkpt>
<trkpt lat="46.86209800" lon="7.31092200"><ele></ele><time>2014-7-3T1:17:29Z</time></trkpt>
<trkpt lat="46.86298000" lon="7.31065900"><ele></ele><time>2014-7-3T1:17:32Z</time></trkpt>
<trkpt lat="46.86375100" lon="7.31054200"><ele></ele><time>2014-7-3T1:17:35Z</time></trkpt>
<trkpt lat="46.86450400" lon="7.31043800"><ele></ele><time>2014-7-3T1:17:38Z</time></trkpt>
<trkpt lat="46.86459400" lon="7.31040600"><ele></ele><time>2014-7-3T1:17:41Z</time></trkpt>
<trkpt lat="46.86465800" lon="7.31050600"><ele></ele><time>2014-7-3T1:17:44Z</time></trkpt>
<trkpt lat="46.86467700" lon="7.31057100"><ele></ele><time>2014-7-3T1:17:47Z</time></trkpt>
<trkpt lat="46.86445100" lon="7.31099800"><ele></ele><time>2014-7-3T1:17:50Z</time></trkpt>
<trkpt lat="46.86452600" lon="7.31125900"><ele></ele><time>2014-7-3T1:17:53Z</time></trkpt>
<trkpt lat="46.86482300" lon="7.31180800"><ele></ele><time>2014-7-3T1:17:56Z</time></trkpt>
<trkpt lat="46.86485700" lon="7.31195600"><ele></ele><time>2014-7-3T1:17:59Z</time></trkpt>
<trkpt lat="46.86493500" lon="7.31273000"><ele></ele><time>2014-7-3T1:18:2Z</time></trkpt>
<trkpt lat="46.86497100" lon="7.31297200"><ele></ele><time>2014-7-3T1:18:5Z</time></trkpt>
<trkpt lat="46.86509100" lon="7.31328600"><ele></ele><time>2014-7-3T1:18:8Z</time></trkpt>
<trkpt lat="46.86569900" lon="7.31402200"><ele></ele><time>2014-7-3T1:18:11Z</time></trkpt>
<trkpt lat="46.86632400" lon="7.31470700"><ele></ele><time>2014-7-3T1:18:14Z</time></trkpt>
<trkpt lat="46.86689900" lon="7.31541800"><ele></ele><time>2014-7-3T1:18:17Z</time></trkpt>
<trkpt lat="46.86716300" lon="7.31580200"><ele></ele><time>2014-7-3T1:18:20Z</time></trkpt>
<trkpt lat="46.86726700" lon="7.31603700"><ele></ele><time>2014-7-3T1:18:23Z</time></trkpt>
<trkpt lat="46.86771000" lon="7.31739800"><ele></ele><time>2014-7-3T1:18:26Z</time></trkpt>
<trkpt lat="46.86817000" lon="7.31878400"><ele></ele><time>2014-7-3T1:18:29Z</time></trkpt>
<trkpt lat="46.86872100" lon="7.32057200"><ele></ele><time>2014-7-3T1:18:32Z</time></trkpt>
<trkpt lat="46.86909400" lon="7.32168000"><ele></ele><time>2014-7-3T1:18:35Z</time></trkpt>
<trkpt lat="46.86952600" lon="7.32317900"><ele></ele><time>2014-7-3T1:18:38Z</time></trkpt>
<trkpt lat="46.86976200" lon="7.32515800"><ele></ele><time>2014-7-3T1:18:41Z</time></trkpt>
<trkpt lat="46.87001400" lon="7.32614900"><ele></ele><time>2014-7-3T1:18:44Z</time></trkpt>
<trkpt lat="46.87066200" lon="7.32703100"><ele></ele><time>2014-7-3T1:18:47Z</time></trkpt>
<trkpt lat="46.87123400" lon="7.32769300"><ele></ele><time>2014-7-3T1:18:50Z</time></trkpt>
<trkpt lat="46.87156200" lon="7.32825000"><ele></ele><time>2014-7-3T1:18:53Z</time></trkpt>
<trkpt lat="46.87157000" lon="7.32832100"><ele></ele><time>2014-7-3T1:18:56Z</time></trkpt>
<trkpt lat="46.87169900" lon="7.32949800"><ele></ele><time>2014-7-3T1:18:59Z</time></trkpt>
<trkpt lat="46.87175700" lon="7.32991000"><ele></ele><time>2014-7-3T1:19:2Z</time></trkpt>
<trkpt lat="46.87179100" lon="7.33002500"><ele></ele><time>2014-7-3T1:19:5Z</time></trkpt>
<trkpt lat="46.87225700" lon="7.33028600"><ele></ele><time>2014-7-3T1:19:8Z</time></trkpt>
<trkpt lat="46.87250500" lon="7.33056400"><ele></ele><time>2014-7-3T1:19:11Z</time></trkpt>
<trkpt lat="46.87262100" lon="7.33101200"><ele></ele><time>2014-7-3T1:19:14Z</time></trkpt>
<trkpt lat="46.87277000" lon="7.33173300"><ele></ele><time>2014-7-3T1:19:17Z</time></trkpt>
<trkpt lat="46.87290500" lon="7.33208900"><ele></ele><time>2014-7-3T1:19:20Z</time></trkpt>
<trkpt lat="46.87318800" lon="7.33269500"><ele></ele><time>2014-7-3T1:19:23Z</time></trkpt>
<trkpt lat="46.87331000" lon="7.33292500"><ele></ele><time>2014-7-3T1:19:26Z</time></trkpt>
<trkpt lat="46.87369300" lon="7.33402600"><ele></ele><time>2014-7-3T1:19:29Z</time></trkpt>
<trkpt lat="46.87386600" lon="7.33459900"><ele></ele><time>2014-7-3T1:19:32Z</time></trkpt>
<trkpt lat="46.87388800" lon="7.33474100"><ele></ele><time>2014-7-3T1:19:35Z</time></trkpt>
<trkpt lat="46.87390000" lon="7.33496000"><ele></ele><time>2014-7-3T1:19:38Z</time></trkpt>
<trkpt lat="46.87388300" lon="7.33536100"><ele></ele><time>2014-7-3T1:19:41Z</time></trkpt>
<trkpt lat="46.87390100" lon="7.33663100"><ele></ele><time>2014-7-3T1:19:44Z</time></trkpt>
<trkpt lat="46.87420900" lon="7.33723400"><ele></ele><time>2014-7-3T1:19:47Z</time></trkpt>
<trkpt lat="46.87462900" lon="7.33859200"><ele></ele><time>2014-7-3T1:19:50Z</time></trkpt>
<trkpt lat="46.87503900" lon="7.34006800"><ele></ele><time>2014-7-3T1:19:53Z</time></trkpt>
<trkpt lat="46.87511100" lon="7.34099500"><ele></ele><time>2014-7-3T1:19:56Z</time></trkpt>
<trkpt lat="46.87511300" lon="7.34118200"><ele></ele><time>2014-7-3T1:19:59Z</time></trkpt>
<trkpt lat="46.87493800" lon="7.34248600"><ele></ele><time>2014-7-3T1:20:2Z</time></trkpt>
<trkpt lat="46.87492800" lon="7.34294400"><ele></ele><time>2014-7-3T1:20:5Z</time></trkpt>
<trkpt lat="46.87494200" lon="7.34333900"><ele></ele><time>2014-7-3T1:20:8Z</time></trkpt>
<trkpt lat="46.87495300" lon="7.34344000"><ele></ele><time>2014-7-3T1:20:11Z</time></trkpt>
<trkpt lat="46.87492900" lon="7.34454800"><ele></ele><time>2014-7-3T1:20:14Z</time></trkpt>
<trkpt lat="46.87488600" lon="7.34496100"><ele></ele><time>2014-7-3T1:20:17Z</time></trkpt>
<trkpt lat="46.87488500" lon="7.34496800"><ele></ele><time>2014-7-3T1:20:20Z</time></trkpt>
<trkpt lat="46.87480100" lon="7.34557400"><ele></ele><time>2014-7-3T1:20:23Z</time></trkpt>
<trkpt lat="46.87476700" lon="7.34581800"><ele></ele><time>2014-7-3T1:20:26Z</time></trkpt>
<trkpt lat="46.87472200" lon="7.34614600"><ele></ele><time>2014-7-3T1:20:29Z</time></trkpt>
<trkpt lat="46.87471400" lon="7.34620600"><ele></ele><time>2014-7-3T1:20:32Z</time></trkpt>
<trkpt lat="46.87471400" lon="7.34620600"><ele></ele><time>2014-7-3T1:20:35Z</time></trkpt>
<trkpt lat="46.87470000" lon="7.34663300"><ele></ele><time>2014-7-3T1:20:38Z</time></trkpt>
<trkpt lat="46.87477700" lon="7.34890800"><ele></ele><time>2014-7-3T1:20:41Z</time></trkpt>
<trkpt lat="46.87483300" lon="7.34927700"><ele></ele><time>2014-7-3T1:20:44Z</time></trkpt>
<trkpt lat="46.87477400" lon="7.34946900"><ele></ele><time>2014-7-3T1:20:47Z</time></trkpt>
<trkpt lat="46.87469000" lon="7.34966000"><ele></ele><time>2014-7-3T1:20:50Z</time></trkpt>
<trkpt lat="46.87453600" lon="7.34997200"><ele></ele><time>2014-7-3T1:20:53Z</time></trkpt>
<trkpt lat="46.87449700" lon="7.35003400"><ele></ele><time>2014-7-3T1:20:56Z</time></trkpt>
<trkpt lat="46.87447500" lon="7.35037900"><ele></ele><time>2014-7-3T1:20:59Z</time></trkpt>
<trkpt lat="46.87451100" lon="7.35047800"><ele></ele><time>2014-7-3T1:21:2Z</time></trkpt>
<trkpt lat="46.87466800" lon="7.35088600"><ele></ele><time>2014-7-3T1:21:5Z</time></trkpt>
<trkpt lat="46.87494700" lon="7.35127100"><ele></ele><time>2014-7-3T1:21:8Z</time></trkpt>
<trkpt lat="46.87541100" lon="7.35173400"><ele></ele><time>2014-7-3T1:21:11Z</time></trkpt>
<trkpt lat="46.87590400" lon="7.35137000"><ele></ele><time>2014-7-3T1:21:14Z</time></trkpt>
<trkpt lat="46.87603300" lon="7.35115200"><ele></ele><time>2014-7-3T1:21:17Z</time></trkpt>
<trkpt lat="46.87613900" lon="7.35095700"><ele></ele><time>2014-7-3T1:21:20Z</time></trkpt>
<trkpt lat="46.87616300" lon="7.35088300"><ele></ele><time>2014-7-3T1:21:23Z</time></trkpt>
<trkpt lat="46.87621000" lon="7.35080800"><ele></ele><time>2014-7-3T1:21:26Z</time></trkpt>
<trkpt lat="46.87625900" lon="7.35078400"><ele></ele><time>2014-7-3T1:21:29Z</time></trkpt>
<trkpt lat="46.87631900" lon="7.35080800"><ele></ele><time>2014-7-3T1:21:32Z</time></trkpt>
<trkpt lat="46.87639500" lon="7.35081600"><ele></ele><time>2014-7-3T1:21:35Z</time></trkpt>
<trkpt lat="46.87659200" lon="7.35087700"><ele></ele><time>2014-7-3T1:21:38Z</time></trkpt>
<trkpt lat="46.87672200" lon="7.35089800"><ele></ele><time>2014-7-3T1:21:41Z</time></trkpt>
<trkpt lat="46.87689800" lon="7.35095700"><ele></ele><time>2014-7-3T1:21:44Z</time></trkpt>
<trkpt lat="46.87699700" lon="7.35100700"><ele></ele><time>2014-7-3T1:21:47Z</time></trkpt>
<trkpt lat="46.87707100" lon="7.35104500"><ele></ele><time>2014-7-3T1:21:50Z</time></trkpt>
<trkpt lat="46.87727900" lon="7.35116700"><ele></ele><time>2014-7-3T1:21:53Z</time></trkpt>
<trkpt lat="46.87753000" lon="7.35137400"><ele></ele><time>2014-7-3T1:21:56Z</time></trkpt>
<trkpt lat="46.87806100" lon="7.35165600"><ele></ele><time>2014-7-3T1:21:59Z</time></trkpt>
<trkpt lat="46.87806100" lon="7.35165600"><ele></ele><time>2014-7-3T1:22:2Z</time></trkpt>
<trkpt lat="46.87806100" lon="7.35165600"><ele></ele><time>2014-7-3T1:22:5Z</time></trkpt>
<trkpt lat="46.87808800" lon="7.35165000"><ele></ele><time>2014-7-3T1:22:8Z</time></trkpt>
<trkpt lat="46.87826400" lon="7.35184300"><ele></ele><time>2014-7-3T1:22:11Z</time></trkpt>
<trkpt lat="46.87861700" lon="7.35204100"><ele></ele><time>2014-7-3T1:22:14Z</time></trkpt>
<trkpt lat="46.87941300" lon="7.35212000"><ele></ele><time>2014-7-3T1:22:17Z</time></trkpt>
<trkpt lat="46.88018800" lon="7.35232800"><ele></ele><time>2014-7-3T1:22:20Z</time></trkpt>
<trkpt lat="46.88040600" lon="7.35237800"><ele></ele><time>2014-7-3T1:22:23Z</time></trkpt>
<trkpt lat="46.88084100" lon="7.35232000"><ele></ele><time>2014-7-3T1:22:26Z</time></trkpt>
<trkpt lat="46.88162100" lon="7.35200000"><ele></ele><time>2014-7-3T1:22:29Z</time></trkpt>
<trkpt lat="46.88206500" lon="7.35190500"><ele></ele><time>2014-7-3T1:22:32Z</time></trkpt>
<trkpt lat="46.88222200" lon="7.35187100"><ele></ele><time>2014-7-3T1:22:35Z</time></trkpt>
<trkpt lat="46.88235700" lon="7.35190500"><ele></ele><time>2014-7-3T1:22:38Z</time></trkpt>
<trkpt lat="46.88269200" lon="7.35199500"><ele></ele><time>2014-7-3T1:22:41Z</time></trkpt>
<trkpt lat="46.88355700" lon="7.35220100"><ele></ele><time>2014-7-3T1:22:44Z</time></trkpt>
<trkpt lat="46.88378100" lon="7.35223800"><ele></ele><time>2014-7-3T1:22:47Z</time></trkpt>
<trkpt lat="46.88427900" lon="7.35208700"><ele></ele><time>2014-7-3T1:22:50Z</time></trkpt>
<trkpt lat="46.88428400" lon="7.35208500"><ele></ele><time>2014-7-3T1:22:53Z</time></trkpt>
<trkpt lat="46.88526400" lon="7.35240900"><ele></ele><time>2014-7-3T1:22:56Z</time></trkpt>
<trkpt lat="46.88538300" lon="7.35254200"><ele></ele><time>2014-7-3T1:22:59Z</time></trkpt>
<trkpt lat="46.88544300" lon="7.35290100"><ele></ele><time>2014-7-3T1:23:2Z</time></trkpt>
<trkpt lat="46.88544300" lon="7.35309400"><ele></ele><time>2014-7-3T1:23:5Z</time></trkpt>
<trkpt lat="46.88568400" lon="7.35315500"><ele></ele><time>2014-7-3T1:23:8Z</time></trkpt>
<trkpt lat="46.88610600" lon="7.35310500"><ele></ele><time>2014-7-3T1:23:11Z</time></trkpt>
<trkpt lat="46.88632500" lon="7.35311000"><ele></ele><time>2014-7-3T1:23:14Z</time></trkpt>
<trkpt lat="46.88667800" lon="7.35295900"><ele></ele><time>2014-7-3T1:23:17Z</time></trkpt>
<trkpt lat="46.88690400" lon="7.35286000"><ele></ele><time>2014-7-3T1:23:20Z</time></trkpt>
<trkpt lat="46.88726200" lon="7.35230100"><ele></ele><time>2014-7-3T1:23:23Z</time></trkpt>
<trkpt lat="46.88750800" lon="7.35197700"><ele></ele><time>2014-7-3T1:23:26Z</time></trkpt>
<trkpt lat="46.88750300" lon="7.35195500"><ele></ele><time>2014-7-3T1:23:29Z</time></trkpt>
<trkpt lat="46.88762100" lon="7.35172100"><ele></ele><time>2014-7-3T1:23:32Z</time></trkpt>
<trkpt lat="46.88785300" lon="7.35135300"><ele></ele><time>2014-7-3T1:23:35Z</time></trkpt>
<trkpt lat="46.88771700" lon="7.35152700"><ele></ele><time>2014-7-3T1:23:38Z</time></trkpt>
<trkpt lat="46.88771700" lon="7.35152700"><ele></ele><time>2014-7-3T1:23:41Z</time></trkpt>
<trkpt lat="46.88862400" lon="7.34996200"><ele></ele><time>2014-7-3T1:23:44Z</time></trkpt>
<trkpt lat="46.88866900" lon="7.34987600"><ele></ele><time>2014-7-3T1:23:47Z</time></trkpt>
<trkpt lat="46.88877200" lon="7.34940500"><ele></ele><time>2014-7-3T1:23:50Z</time></trkpt>
<trkpt lat="46.88934800" lon="7.34929600"><ele></ele><time>2014-7-3T1:23:53Z</time></trkpt>
<trkpt lat="46.88937500" lon="7.34870500"><ele></ele><time>2014-7-3T1:23:56Z</time></trkpt>
<trkpt lat="46.88963300" lon="7.34842600"><ele></ele><time>2014-7-3T1:23:59Z</time></trkpt>
<trkpt lat="46.88962800" lon="7.34838100"><ele></ele><time>2014-7-3T1:24:2Z</time></trkpt>
<trkpt lat="46.88972900" lon="7.34838700"><ele></ele><time>2014-7-3T1:24:5Z</time></trkpt>
<trkpt lat="46.88968500" lon="7.34620900"><ele></ele><time>2014-7-3T1:24:8Z</time></trkpt>
<trkpt lat="46.88980800" lon="7.34470500"><ele></ele><time>2014-7-3T1:24:11Z</time></trkpt>
<trkpt lat="46.88986200" lon="7.34445100"><ele></ele><time>2014-7-3T1:24:14Z</time></trkpt>
<trkpt lat="46.88988300" lon="7.34436500"><ele></ele><time>2014-7-3T1:24:17Z</time></trkpt>
<trkpt lat="46.88997600" lon="7.34373500"><ele></ele><time>2014-7-3T1:24:20Z</time></trkpt>
<trkpt lat="46.89003500" lon="7.34367400"><ele></ele><time>2014-7-3T1:24:23Z</time></trkpt>
<trkpt lat="46.89001200" lon="7.34294800"><ele></ele><time>2014-7-3T1:24:26Z</time></trkpt>
<trkpt lat="46.89003500" lon="7.34280100"><ele></ele><time>2014-7-3T1:24:29Z</time></trkpt>
<trkpt lat="46.89013200" lon="7.34209000"><ele></ele><time>2014-7-3T1:24:32Z</time></trkpt>
<trkpt lat="46.89024700" lon="7.34159800"><ele></ele><time>2014-7-3T1:24:35Z</time></trkpt>
<trkpt lat="46.88984800" lon="7.34094900"><ele></ele><time>2014-7-3T1:24:38Z</time></trkpt>
<trkpt lat="46.88982000" lon="7.34081600"><ele></ele><time>2014-7-3T1:24:41Z</time></trkpt>
<trkpt lat="46.88986500" lon="7.34063000"><ele></ele><time>2014-7-3T1:24:44Z</time></trkpt>
<trkpt lat="46.89096700" lon="7.33956600"><ele></ele><time>2014-7-3T1:24:47Z</time></trkpt>
<trkpt lat="46.89088300" lon="7.33898400"><ele></ele><time>2014-7-3T1:24:50Z</time></trkpt>
<trkpt lat="46.89102000" lon="7.33805200"><ele></ele><time>2014-7-3T1:24:53Z</time></trkpt>
<trkpt lat="46.89111800" lon="7.33769700"><ele></ele><time>2014-7-3T1:24:56Z</time></trkpt>
<trkpt lat="46.89111500" lon="7.33770100"><ele></ele><time>2014-7-3T1:24:59Z</time></trkpt>
<trkpt lat="46.89120600" lon="7.33742700"><ele></ele><time>2014-7-3T1:25:2Z</time></trkpt>
<trkpt lat="46.89144200" lon="7.33648700"><ele></ele><time>2014-7-3T1:25:5Z</time></trkpt>
<trkpt lat="46.89144900" lon="7.33625000"><ele></ele><time>2014-7-3T1:25:8Z</time></trkpt>
<trkpt lat="46.89146500" lon="7.33591800"><ele></ele><time>2014-7-3T1:25:11Z</time></trkpt>
<trkpt lat="46.89172300" lon="7.33516300"><ele></ele><time>2014-7-3T1:25:14Z</time></trkpt>
<trkpt lat="46.89195000" lon="7.33405000"><ele></ele><time>2014-7-3T1:25:17Z</time></trkpt>
<trkpt lat="46.89204400" lon="7.33347700"><ele></ele><time>2014-7-3T1:25:20Z</time></trkpt>
<trkpt lat="46.89222300" lon="7.33248200"><ele></ele><time>2014-7-3T1:25:23Z</time></trkpt>
<trkpt lat="46.89222100" lon="7.33247900"><ele></ele><time>2014-7-3T1:25:26Z</time></trkpt>
<trkpt lat="46.89225100" lon="7.33232800"><ele></ele><time>2014-7-3T1:25:29Z</time></trkpt>
<trkpt lat="46.89230100" lon="7.33226200"><ele></ele><time>2014-7-3T1:25:32Z</time></trkpt>
<trkpt lat="46.89251100" lon="7.33170400"><ele></ele><time>2014-7-3T1:25:35Z</time></trkpt>
<trkpt lat="46.89290200" lon="7.33056800"><ele></ele><time>2014-7-3T1:25:38Z</time></trkpt>
<trkpt lat="46.89305600" lon="7.32789600"><ele></ele><time>2014-7-3T1:25:41Z</time></trkpt>
<trkpt lat="46.89338700" lon="7.32587300"><ele></ele><time>2014-7-3T1:25:44Z</time></trkpt>
<trkpt lat="46.89348100" lon="7.32538800"><ele></ele><time>2014-7-3T1:25:47Z</time></trkpt>
<trkpt lat="46.89316500" lon="7.32462800"><ele></ele><time>2014-7-3T1:25:50Z</time></trkpt>
<trkpt lat="46.89325400" lon="7.32448600"><ele></ele><time>2014-7-3T1:25:53Z</time></trkpt>
<trkpt lat="46.89340300" lon="7.32403000"><ele></ele><time>2014-7-3T1:25:56Z</time></trkpt>
<trkpt lat="46.89333000" lon="7.32381200"><ele></ele><time>2014-7-3T1:25:59Z</time></trkpt>
<trkpt lat="46.89323200" lon="7.32320600"><ele></ele><time>2014-7-3T1:26:2Z</time></trkpt>
<trkpt lat="46.89330800" lon="7.32319700"><ele></ele><time>2014-7-3T1:26:5Z</time></trkpt>
<trkpt lat="46.89331200" lon="7.32306900"><ele></ele><time>2014-7-3T1:26:8Z</time></trkpt>
<trkpt lat="46.89325400" lon="7.32223300"><ele></ele><time>2014-7-3T1:26:11Z</time></trkpt>
<trkpt lat="46.89290300" lon="7.31898200"><ele></ele><time>2014-7-3T1:26:14Z</time></trkpt>
<trkpt lat="46.89136500" lon="7.31535000"><ele></ele><time>2014-7-3T1:26:17Z</time></trkpt>
<trkpt lat="46.89148900" lon="7.31501900"><ele></ele><time>2014-7-3T1:26:20Z</time></trkpt>
<trkpt lat="46.89144500" lon="7.31396400"><ele></ele><time>2014-7-3T1:26:23Z</time></trkpt>
<trkpt lat="46.89127900" lon="7.31353500"><ele></ele><time>2014-7-3T1:26:26Z</time></trkpt>
<trkpt lat="46.89117000" lon="7.31327000"><ele></ele><time>2014-7-3T1:26:29Z</time></trkpt>
<trkpt lat="46.89094000" lon="7.31282200"><ele></ele><time>2014-7-3T1:26:32Z</time></trkpt>
<trkpt lat="46.89085000" lon="7.31281800"><ele></ele><time>2014-7-3T1:26:35Z</time></trkpt>
<trkpt lat="46.89130700" lon="7.31170100"><ele></ele><time>2014-7-3T1:26:38Z</time></trkpt>
<trkpt lat="46.89118600" lon="7.30928100"><ele></ele><time>2014-7-3T1:26:41Z</time></trkpt>
<trkpt lat="46.89120800" lon="7.30818700"><ele></ele><time>2014-7-3T1:26:44Z</time></trkpt>
<trkpt lat="46.89113900" lon="7.30809900"><ele></ele><time>2014-7-3T1:26:47Z</time></trkpt>
<trkpt lat="46.89130300" lon="7.30745900"><ele></ele><time>2014-7-3T1:26:50Z</time></trkpt>
<trkpt lat="46.89137400" lon="7.30667900"><ele></ele><time>2014-7-3T1:26:53Z</time></trkpt>
<trkpt lat="46.89102000" lon="7.30570500"><ele></ele><time>2014-7-3T1:26:56Z</time></trkpt>
<trkpt lat="46.89130400" lon="7.30427200"><ele></ele><time>2014-7-3T1:26:59Z</time></trkpt>
<trkpt lat="46.89160400" lon="7.30308000"><ele></ele><time>2014-7-3T1:27:2Z</time></trkpt>
<trkpt lat="46.89175100" lon="7.30196000"><ele></ele><time>2014-7-3T1:27:5Z</time></trkpt>
<trkpt lat="46.89175100" lon="7.30196100"><ele></ele><time>2014-7-3T1:27:8Z</time></trkpt>
<trkpt lat="46.89178000" lon="7.30173500"><ele></ele><time>2014-7-3T1:27:11Z</time></trkpt>
<trkpt lat="46.89180200" lon="7.30162600"><ele></ele><time>2014-7-3T1:27:14Z</time></trkpt>
<trkpt lat="46.89178100" lon="7.30126500"><ele></ele><time>2014-7-3T1:27:17Z</time></trkpt>
<trkpt lat="46.89199900" lon="7.30063400"><ele></ele><time>2014-7-3T1:27:20Z</time></trkpt>
<trkpt lat="46.89209700" lon="7.30039300"><ele></ele><time>2014-7-3T1:27:23Z</time></trkpt>
<trkpt lat="46.89223900" lon="7.30020400"><ele></ele><time>2014-7-3T1:27:26Z</time></trkpt>
<trkpt lat="46.89220100" lon="7.29979500"><ele></ele><time>2014-7-3T1:27:29Z</time></trkpt>
<trkpt lat="46.89215800" lon="7.29958400"><ele></ele><time>2014-7-3T1:27:32Z</time></trkpt>
<trkpt lat="46.89228300" lon="7.29921400"><ele></ele><time>2014-7-3T1:27:35Z</time></trkpt>
<trkpt lat="46.89234200" lon="7.29917100"><ele></ele><time>2014-7-3T1:27:38Z</time></trkpt>
<trkpt lat="46.89262400" lon="7.29893100"><ele></ele><time>2014-7-3T1:27:41Z</time></trkpt>
<trkpt lat="46.89281300" lon="7.29879200"><ele></ele><time>2014-7-3T1:27:44Z</time></trkpt>
<trkpt lat="46.89290600" lon="7.29849300"><ele></ele><time>2014-7-3T1:27:47Z</time></trkpt>
<trkpt lat="46.89299200" lon="7.29814100"><ele></ele><time>2014-7-3T1:27:50Z</time></trkpt>
<trkpt lat="46.89342500" lon="7.29663800"><ele></ele><time>2014-7-3T1:27:53Z</time></trkpt>
<trkpt lat="46.89345200" lon="7.29605200"><ele></ele><time>2014-7-3T1:27:56Z</time></trkpt>
<trkpt lat="46.89350700" lon="7.29398400"><ele></ele><time>2014-7-3T1:27:59Z</time></trkpt>
<trkpt lat="46.89351100" lon="7.29188300"><ele></ele><time>2014-7-3T1:28:2Z</time></trkpt>
<trkpt lat="46.89351100" lon="7.29063000"><ele></ele><time>2014-7-3T1:28:5Z</time></trkpt>
<trkpt lat="46.89346800" lon="7.29054500"><ele></ele><time>2014-7-3T1:28:8Z</time></trkpt>
<trkpt lat="46.89321000" lon="7.29050200"><ele></ele><time>2014-7-3T1:28:11Z</time></trkpt>
<trkpt lat="46.89321000" lon="7.29017400"><ele></ele><time>2014-7-3T1:28:14Z</time></trkpt>
<trkpt lat="46.89299000" lon="7.28847000"><ele></ele><time>2014-7-3T1:28:17Z</time></trkpt>
<trkpt lat="46.89251000" lon="7.28717500"><ele></ele><time>2014-7-3T1:28:20Z</time></trkpt>
<trkpt lat="46.89247300" lon="7.28710200"><ele></ele><time>2014-7-3T1:28:23Z</time></trkpt>
<trkpt lat="46.89176300" lon="7.28602900"><ele></ele><time>2014-7-3T1:28:26Z</time></trkpt>
<trkpt lat="46.89105800" lon="7.28513100"><ele></ele><time>2014-7-3T1:28:29Z</time></trkpt>
<trkpt lat="46.89103600" lon="7.28491600"><ele></ele><time>2014-7-3T1:28:32Z</time></trkpt>
<trkpt lat="46.89110800" lon="7.28496600"><ele></ele><time>2014-7-3T1:28:35Z</time></trkpt>
<trkpt lat="46.88996800" lon="7.28370900"><ele></ele><time>2014-7-3T1:28:38Z</time></trkpt>
<trkpt lat="46.88949500" lon="7.28244700"><ele></ele><time>2014-7-3T1:28:41Z</time></trkpt>
<trkpt lat="46.88908300" lon="7.28097100"><ele></ele><time>2014-7-3T1:28:44Z</time></trkpt>
<trkpt lat="46.88913800" lon="7.27974600"><ele></ele><time>2014-7-3T1:28:47Z</time></trkpt>
<trkpt lat="46.88930600" lon="7.27943700"><ele></ele><time>2014-7-3T1:28:50Z</time></trkpt>
<trkpt lat="46.88946500" lon="7.27943300"><ele></ele><time>2014-7-3T1:28:53Z</time></trkpt>
<trkpt lat="46.88975900" lon="7.27900700"><ele></ele><time>2014-7-3T1:28:56Z</time></trkpt>
<trkpt lat="46.88980800" lon="7.27873700"><ele></ele><time>2014-7-3T1:28:59Z</time></trkpt>
<trkpt lat="46.88981000" lon="7.27862400"><ele></ele><time>2014-7-3T1:29:2Z</time></trkpt>
<trkpt lat="46.88991800" lon="7.27825500"><ele></ele><time>2014-7-3T1:29:5Z</time></trkpt>
<trkpt lat="46.89025400" lon="7.27763300"><ele></ele><time>2014-7-3T1:29:8Z</time></trkpt>
<trkpt lat="46.89029500" lon="7.27752100"><ele></ele><time>2014-7-3T1:29:11Z</time></trkpt>
<trkpt lat="46.89029000" lon="7.27744900"><ele></ele><time>2014-7-3T1:29:14Z</time></trkpt>
<trkpt lat="46.89033600" lon="7.27731600"><ele></ele><time>2014-7-3T1:29:17Z</time></trkpt>
<trkpt lat="46.89046000" lon="7.27674800"><ele></ele><time>2014-7-3T1:29:20Z</time></trkpt>
<trkpt lat="46.89152300" lon="7.27384200"><ele></ele><time>2014-7-3T1:29:23Z</time></trkpt>
<trkpt lat="46.89218900" lon="7.27254500"><ele></ele><time>2014-7-3T1:29:26Z</time></trkpt>
<trkpt lat="46.89268500" lon="7.27120400"><ele></ele><time>2014-7-3T1:29:29Z</time></trkpt>
<trkpt lat="46.89281300" lon="7.27037000"><ele></ele><time>2014-7-3T1:29:32Z</time></trkpt>
<trkpt lat="46.89236600" lon="7.26965000"><ele></ele><time>2014-7-3T1:29:35Z</time></trkpt>
<trkpt lat="46.89192300" lon="7.26947300"><ele></ele><time>2014-7-3T1:29:38Z</time></trkpt>
<trkpt lat="46.89227600" lon="7.26900500"><ele></ele><time>2014-7-3T1:29:41Z</time></trkpt>
<trkpt lat="46.89260300" lon="7.26833400"><ele></ele><time>2014-7-3T1:29:44Z</time></trkpt>
<trkpt lat="46.89261600" lon="7.26826300"><ele></ele><time>2014-7-3T1:29:47Z</time></trkpt>
<trkpt lat="46.89266100" lon="7.26807600"><ele></ele><time>2014-7-3T1:29:50Z</time></trkpt>
<trkpt lat="46.89271300" lon="7.26779200"><ele></ele><time>2014-7-3T1:29:53Z</time></trkpt>
<trkpt lat="46.89314900" lon="7.26609200"><ele></ele><time>2014-7-3T1:29:56Z</time></trkpt>
<trkpt lat="46.89334700" lon="7.26559300"><ele></ele><time>2014-7-3T1:29:59Z</time></trkpt>
<trkpt lat="46.89384400" lon="7.26477500"><ele></ele><time>2014-7-3T1:30:2Z</time></trkpt>
<trkpt lat="46.89419800" lon="7.26452600"><ele></ele><time>2014-7-3T1:30:5Z</time></trkpt>
<trkpt lat="46.89467200" lon="7.26412900"><ele></ele><time>2014-7-3T1:30:8Z</time></trkpt>
<trkpt lat="46.89486300" lon="7.26374500"><ele></ele><time>2014-7-3T1:30:11Z</time></trkpt>
<trkpt lat="46.89529500" lon="7.26213800"><ele></ele><time>2014-7-3T1:30:14Z</time></trkpt>
<trkpt lat="46.89549000" lon="7.26218200"><ele></ele><time>2014-7-3T1:30:17Z</time></trkpt>
<trkpt lat="46.89600000" lon="7.26233000"><ele></ele><time>2014-7-3T1:30:20Z</time></trkpt>
<trkpt lat="46.89661600" lon="7.26188200"><ele></ele><time>2014-7-3T1:30:23Z</time></trkpt>
<trkpt lat="46.89692800" lon="7.26082800"><ele></ele><time>2014-7-3T1:30:26Z</time></trkpt>
<trkpt lat="46.89689800" lon="7.26085300"><ele></ele><time>2014-7-3T1:30:29Z</time></trkpt>
<trkpt lat="46.89700800" lon="7.26060800"><ele></ele><time>2014-7-3T1:30:32Z</time></trkpt>
<trkpt lat="46.89759500" lon="7.25859900"><ele></ele><time>2014-7-3T1:30:35Z</time></trkpt>
<trkpt lat="46.89796000" lon="7.25674500"><ele></ele><time>2014-7-3T1:30:38Z</time></trkpt>
<trkpt lat="46.89812600" lon="7.25488800"><ele></ele><time>2014-7-3T1:30:41Z</time></trkpt>
<trkpt lat="46.89831600" lon="7.25291000"><ele></ele><time>2014-7-3T1:30:44Z</time></trkpt>
<trkpt lat="46.89849600" lon="7.25122000"><ele></ele><time>2014-7-3T1:30:47Z</time></trkpt>
<trkpt lat="46.89864000" lon="7.25009600"><ele></ele><time>2014-7-3T1:30:50Z</time></trkpt>
<trkpt lat="46.89903000" lon="7.24846400"><ele></ele><time>2014-7-3T1:30:53Z</time></trkpt>
<trkpt lat="46.89948600" lon="7.24637600"><ele></ele><time>2014-7-3T1:30:56Z</time></trkpt>
<trkpt lat="46.89984300" lon="7.24514000"><ele></ele><time>2014-7-3T1:30:59Z</time></trkpt>
<trkpt lat="46.89964100" lon="7.24419100"><ele></ele><time>2014-7-3T1:31:2Z</time></trkpt>
<trkpt lat="46.89962500" lon="7.24411100"><ele></ele><time>2014-7-3T1:31:5Z</time></trkpt>
<trkpt lat="46.89975800" lon="7.24350400"><ele></ele><time>2014-7-3T1:31:8Z</time></trkpt>
<trkpt lat="46.89987300" lon="7.24303000"><ele></ele><time>2014-7-3T1:31:11Z</time></trkpt>
<trkpt lat="46.89989600" lon="7.24290400"><ele></ele><time>2014-7-3T1:31:14Z</time></trkpt>
<trkpt lat="46.89998400" lon="7.24262300"><ele></ele><time>2014-7-3T1:31:17Z</time></trkpt>
<trkpt lat="46.90003200" lon="7.24229300"><ele></ele><time>2014-7-3T1:31:20Z</time></trkpt>
<trkpt lat="46.90030700" lon="7.24125100"><ele></ele><time>2014-7-3T1:31:23Z</time></trkpt>
<trkpt lat="46.90052800" lon="7.24061100"><ele></ele><time>2014-7-3T1:31:26Z</time></trkpt>
<trkpt lat="46.90104900" lon="7.23964900"><ele></ele><time>2014-7-3T1:31:29Z</time></trkpt>
<trkpt lat="46.90109000" lon="7.23959200"><ele></ele><time>2014-7-3T1:31:32Z</time></trkpt>
<trkpt lat="46.90127300" lon="7.23953300"><ele></ele><time>2014-7-3T1:31:35Z</time></trkpt>
<trkpt lat="46.90135000" lon="7.23949900"><ele></ele><time>2014-7-3T1:31:38Z</time></trkpt>
<trkpt lat="46.90139300" lon="7.23939500"><ele></ele><time>2014-7-3T1:31:41Z</time></trkpt>
<trkpt lat="46.90159800" lon="7.23859900"><ele></ele><time>2014-7-3T1:31:44Z</time></trkpt>
<trkpt lat="46.90196500" lon="7.23789700"><ele></ele><time>2014-7-3T1:31:47Z</time></trkpt>
<trkpt lat="46.90260900" lon="7.23718000"><ele></ele><time>2014-7-3T1:31:50Z</time></trkpt>
<trkpt lat="46.90313700" lon="7.23664000"><ele></ele><time>2014-7-3T1:31:53Z</time></trkpt>
<trkpt lat="46.90326900" lon="7.23651100"><ele></ele><time>2014-7-3T1:31:56Z</time></trkpt>
<trkpt lat="46.90415800" lon="7.23556800"><ele></ele><time>2014-7-3T1:31:59Z</time></trkpt>
<trkpt lat="46.90474200" lon="7.23492900"><ele></ele><time>2014-7-3T1:32:2Z</time></trkpt>
<trkpt lat="46.90489300" lon="7.23476100"><ele></ele><time>2014-7-3T1:32:5Z</time></trkpt>
<trkpt lat="46.90541600" lon="7.23419500"><ele></ele><time>2014-7-3T1:32:8Z</time></trkpt>
<trkpt lat="46.90560500" lon="7.23396700"><ele></ele><time>2014-7-3T1:32:11Z</time></trkpt>
<trkpt lat="46.90572000" lon="7.23382500"><ele></ele><time>2014-7-3T1:32:14Z</time></trkpt>
<trkpt lat="46.90569000" lon="7.23375300"><ele></ele><time>2014-7-3T1:32:17Z</time></trkpt>
<trkpt lat="46.90502300" lon="7.23305900"><ele></ele><time>2014-7-3T1:32:20Z</time></trkpt>
<trkpt lat="46.90451100" lon="7.23251000"><ele></ele><time>2014-7-3T1:32:23Z</time></trkpt>
<trkpt lat="46.90441900" lon="7.23238000"><ele></ele><time>2014-7-3T1:32:26Z</time></trkpt>
<trkpt lat="46.90433900" lon="7.23224500"><ele></ele><time>2014-7-3T1:32:29Z</time></trkpt>
<trkpt lat="46.90376700" lon="7.23098400"><ele></ele><time>2014-7-3T1:32:32Z</time></trkpt>
<trkpt lat="46.90373900" lon="7.23090500"><ele></ele><time>2014-7-3T1:32:35Z</time></trkpt>
<trkpt lat="46.90363900" lon="7.23037700"><ele></ele><time>2014-7-3T1:32:38Z</time></trkpt>
<trkpt lat="46.90326900" lon="7.22937900"><ele></ele><time>2014-7-3T1:32:41Z</time></trkpt>
<trkpt lat="46.90404300" lon="7.22847900"><ele></ele><time>2014-7-3T1:32:44Z</time></trkpt>
<trkpt lat="46.90352400" lon="7.22681600"><ele></ele><time>2014-7-3T1:32:47Z</time></trkpt>
<trkpt lat="46.90375700" lon="7.22640000"><ele></ele><time>2014-7-3T1:32:50Z</time></trkpt>
<trkpt lat="46.90297600" lon="7.22633400"><ele></ele><time>2014-7-3T1:32:53Z</time></trkpt>
<trkpt lat="46.90286800" lon="7.22541200"><ele></ele><time>2014-7-3T1:32:56Z</time></trkpt>
<trkpt lat="46.90249300" lon="7.22396500"><ele></ele><time>2014-7-3T1:32:59Z</time></trkpt>
<trkpt lat="46.90182300" lon="7.22263100"><ele></ele><time>2014-7-3T1:33:2Z</time></trkpt>
<trkpt lat="46.90067100" lon="7.22149600"><ele></ele><time>2014-7-3T1:33:5Z</time></trkpt>
<trkpt lat="46.89955300" lon="7.22046400"><ele></ele><time>2014-7-3T1:33:8Z</time></trkpt>
<trkpt lat="46.89938900" lon="7.22030300"><ele></ele><time>2014-7-3T1:33:11Z</time></trkpt>
<trkpt lat="46.89889700" lon="7.22036200"><ele></ele><time>2014-7-3T1:33:14Z</time></trkpt>
<trkpt lat="46.89881700" lon="7.22018100"><ele></ele><time>2014-7-3T1:33:17Z</time></trkpt>
<trkpt lat="46.89827900" lon="7.21935500"><ele></ele><time>2014-7-3T1:33:20Z</time></trkpt>
<trkpt lat="46.89805300" lon="7.21908700"><ele></ele><time>2014-7-3T1:33:23Z</time></trkpt>
<trkpt lat="46.89792100" lon="7.21951800"><ele></ele><time>2014-7-3T1:33:26Z</time></trkpt>
<trkpt lat="46.89741600" lon="7.21839400"><ele></ele><time>2014-7-3T1:33:29Z</time></trkpt>
<trkpt lat="46.89690100" lon="7.21866100"><ele></ele><time>2014-7-3T1:33:32Z</time></trkpt>
<trkpt lat="46.89699400" lon="7.21816500"><ele></ele><time>2014-7-3T1:33:35Z</time></trkpt>
<trkpt lat="46.89702200" lon="7.21783700"><ele></ele><time>2014-7-3T1:33:38Z</time></trkpt>
<trkpt lat="46.89692400" lon="7.21776800"><ele></ele><time>2014-7-3T1:33:41Z</time></trkpt>
<trkpt lat="46.89647400" lon="7.21823500"><ele></ele><time>2014-7-3T1:33:44Z</time></trkpt>
<trkpt lat="46.89647300" lon="7.21823400"><ele></ele><time>2014-7-3T1:33:47Z</time></trkpt>
<trkpt lat="46.89647200" lon="7.21823200"><ele></ele><time>2014-7-3T1:33:50Z</time></trkpt>
<trkpt lat="46.89640900" lon="7.21693600"><ele></ele><time>2014-7-3T1:33:53Z</time></trkpt>
<trkpt lat="46.89637800" lon="7.21682200"><ele></ele><time>2014-7-3T1:33:56Z</time></trkpt>
<trkpt lat="46.89618100" lon="7.21666200"><ele></ele><time>2014-7-3T1:33:59Z</time></trkpt>
<trkpt lat="46.89550700" lon="7.21603200"><ele></ele><time>2014-7-3T1:34:2Z</time></trkpt>
<trkpt lat="46.89488400" lon="7.21582900"><ele></ele><time>2014-7-3T1:34:5Z</time></trkpt>
<trkpt lat="46.89471600" lon="7.21558800"><ele></ele><time>2014-7-3T1:34:8Z</time></trkpt>
<trkpt lat="46.89470100" lon="7.21559400"><ele></ele><time>2014-7-3T1:34:11Z</time></trkpt>
<trkpt lat="46.89457400" lon="7.21541200"><ele></ele><time>2014-7-3T1:34:14Z</time></trkpt>
<trkpt lat="46.89412100" lon="7.21473600"><ele></ele><time>2014-7-3T1:34:17Z</time></trkpt>
<trkpt lat="46.89358100" lon="7.21412700"><ele></ele><time>2014-7-3T1:34:20Z</time></trkpt>
<trkpt lat="46.89224900" lon="7.21264500"><ele></ele><time>2014-7-3T1:34:23Z</time></trkpt>
<trkpt lat="46.89221100" lon="7.21260700"><ele></ele><time>2014-7-3T1:34:26Z</time></trkpt>
<trkpt lat="46.89154700" lon="7.21192100"><ele></ele><time>2014-7-3T1:34:29Z</time></trkpt>
<trkpt lat="46.89062400" lon="7.21099600"><ele></ele><time>2014-7-3T1:34:32Z</time></trkpt>
<trkpt lat="46.89033900" lon="7.21074100"><ele></ele><time>2014-7-3T1:34:35Z</time></trkpt>
<trkpt lat="46.89020100" lon="7.21059400"><ele></ele><time>2014-7-3T1:34:38Z</time></trkpt>
<trkpt lat="46.89015200" lon="7.21053700"><ele></ele><time>2014-7-3T1:34:41Z</time></trkpt>
<trkpt lat="46.88999900" lon="7.21037400"><ele></ele><time>2014-7-3T1:34:44Z</time></trkpt>
<trkpt lat="46.88870900" lon="7.20880300"><ele></ele><time>2014-7-3T1:34:47Z</time></trkpt>
<trkpt lat="46.88800700" lon="7.20784200"><ele></ele><time>2014-7-3T1:34:50Z</time></trkpt>
<trkpt lat="46.88735400" lon="7.20697200"><ele></ele><time>2014-7-3T1:34:53Z</time></trkpt>
<trkpt lat="46.88729200" lon="7.20689800"><ele></ele><time>2014-7-3T1:34:56Z</time></trkpt>
<trkpt lat="46.88721200" lon="7.20701200"><ele></ele><time>2014-7-3T1:34:59Z</time></trkpt>
<trkpt lat="46.88710000" lon="7.20717000"><ele></ele><time>2014-7-3T1:35:2Z</time></trkpt>
<trkpt lat="46.88667100" lon="7.20658200"><ele></ele><time>2014-7-3T1:35:5Z</time></trkpt>
<trkpt lat="46.88661300" lon="7.20649600"><ele></ele><time>2014-7-3T1:35:8Z</time></trkpt>
<trkpt lat="46.88654400" lon="7.20642600"><ele></ele><time>2014-7-3T1:35:11Z</time></trkpt>
<trkpt lat="46.88584900" lon="7.20551000"><ele></ele><time>2014-7-3T1:35:14Z</time></trkpt>
<trkpt lat="46.88542100" lon="7.20496100"><ele></ele><time>2014-7-3T1:35:17Z</time></trkpt>
<trkpt lat="46.88482000" lon="7.20460300"><ele></ele><time>2014-7-3T1:35:20Z</time></trkpt>
<trkpt lat="46.88421000" lon="7.20510100"><ele></ele><time>2014-7-3T1:35:23Z</time></trkpt>
<trkpt lat="46.88399200" lon="7.20535300"><ele></ele><time>2014-7-3T1:35:26Z</time></trkpt>
<trkpt lat="46.88381100" lon="7.20566200"><ele></ele><time>2014-7-3T1:35:29Z</time></trkpt>
<trkpt lat="46.88379700" lon="7.20571200"><ele></ele><time>2014-7-3T1:35:32Z</time></trkpt>
<trkpt lat="46.88379900" lon="7.20568900"><ele></ele><time>2014-7-3T1:35:35Z</time></trkpt>
<trkpt lat="46.88377800" lon="7.20566500"><ele></ele><time>2014-7-3T1:35:38Z</time></trkpt>
<trkpt lat="46.88377100" lon="7.20565000"><ele></ele><time>2014-7-3T1:35:41Z</time></trkpt>
<trkpt lat="46.88374900" lon="7.20563500"><ele></ele><time>2014-7-3T1:35:44Z</time></trkpt>
<trkpt lat="46.88353400" lon="7.20524100"><ele></ele><time>2014-7-3T1:35:47Z</time></trkpt>
<trkpt lat="46.88318500" lon="7.20473600"><ele></ele><time>2014-7-3T1:35:50Z</time></trkpt>
<trkpt lat="46.88304900" lon="7.20463800"><ele></ele><time>2014-7-3T1:35:53Z</time></trkpt>
<trkpt lat="46.88296200" lon="7.20459900"><ele></ele><time>2014-7-3T1:35:56Z</time></trkpt>
<trkpt lat="46.88282800" lon="7.20453900"><ele></ele><time>2014-7-3T1:35:59Z</time></trkpt>
<trkpt lat="46.88274400" lon="7.20450800"><ele></ele><time>2014-7-3T1:36:2Z</time></trkpt>
<trkpt lat="46.88269600" lon="7.20452000"><ele></ele><time>2014-7-3T1:36:5Z</time></trkpt>
<trkpt lat="46.88251800" lon="7.20442100"><ele></ele><time>2014-7-3T1:36:8Z</time></trkpt>
<trkpt lat="46.88228300" lon="7.20421200"><ele></ele><time>2014-7-3T1:36:11Z</time></trkpt>
<trkpt lat="46.88208400" lon="7.20395000"><ele></ele><time>2014-7-3T1:36:14Z</time></trkpt>
<trkpt lat="46.88196500" lon="7.20384300"><ele></ele><time>2014-7-3T1:36:17Z</time></trkpt>
<trkpt lat="46.88164900" lon="7.20367700"><ele></ele><time>2014-7-3T1:36:20Z</time></trkpt>
<trkpt lat="46.88147500" lon="7.20356300"><ele></ele><time>2014-7-3T1:36:23Z</time></trkpt>
<trkpt lat="46.88114900" lon="7.20369600"><ele></ele><time>2014-7-3T1:36:26Z</time></trkpt>
<trkpt lat="46.88096200" lon="7.20391900"><ele></ele><time>2014-7-3T1:36:29Z</time></trkpt>
<trkpt lat="46.88061500" lon="7.20424800"><ele></ele><time>2014-7-3T1:36:32Z</time></trkpt>
<trkpt lat="46.88036600" lon="7.20419100"><ele></ele><time>2014-7-3T1:36:35Z</time></trkpt>
<trkpt lat="46.87996500" lon="7.20403300"><ele></ele><time>2014-7-3T1:36:38Z</time></trkpt>
<trkpt lat="46.87990300" lon="7.20404400"><ele></ele><time>2014-7-3T1:36:41Z</time></trkpt>
<trkpt lat="46.87986300" lon="7.20408500"><ele></ele><time>2014-7-3T1:36:44Z</time></trkpt>
<trkpt lat="46.87945400" lon="7.20379100"><ele></ele><time>2014-7-3T1:36:47Z</time></trkpt>
<trkpt lat="46.87932000" lon="7.20368000"><ele></ele><time>2014-7-3T1:36:50Z</time></trkpt>
<trkpt lat="46.87891100" lon="7.20342200"><ele></ele><time>2014-7-3T1:36:53Z</time></trkpt>
<trkpt lat="46.87888400" lon="7.20339900"><ele></ele><time>2014-7-3T1:36:56Z</time></trkpt>
<trkpt lat="46.87883300" lon="7.20337300"><ele></ele><time>2014-7-3T1:36:59Z</time></trkpt>
<trkpt lat="46.87868800" lon="7.20327800"><ele></ele><time>2014-7-3T1:37:2Z</time></trkpt>
<trkpt lat="46.87864800" lon="7.20324100"><ele></ele><time>2014-7-3T1:37:5Z</time></trkpt>
<trkpt lat="46.87857900" lon="7.20319400"><ele></ele><time>2014-7-3T1:37:8Z</time></trkpt>
<trkpt lat="46.87813600" lon="7.20328900"><ele></ele><time>2014-7-3T1:37:11Z</time></trkpt>
<trkpt lat="46.87810700" lon="7.20329600"><ele></ele><time>2014-7-3T1:37:14Z</time></trkpt>
<trkpt lat="46.87761200" lon="7.20343000"><ele></ele><time>2014-7-3T1:37:17Z</time></trkpt>
<trkpt lat="46.87743600" lon="7.20342700"><ele></ele><time>2014-7-3T1:37:20Z</time></trkpt>
<trkpt lat="46.87714100" lon="7.20314100"><ele></ele><time>2014-7-3T1:37:23Z</time></trkpt>
<trkpt lat="46.87694400" lon="7.20289000"><ele></ele><time>2014-7-3T1:37:26Z</time></trkpt>
<trkpt lat="46.87676100" lon="7.20259900"><ele></ele><time>2014-7-3T1:37:29Z</time></trkpt>
<trkpt lat="46.87632400" lon="7.20169500"><ele></ele><time>2014-7-3T1:37:32Z</time></trkpt>
<trkpt lat="46.87588400" lon="7.20119600"><ele></ele><time>2014-7-3T1:37:35Z</time></trkpt>
<trkpt lat="46.87572600" lon="7.20114300"><ele></ele><time>2014-7-3T1:37:38Z</time></trkpt>
<trkpt lat="46.87556900" lon="7.20115400"><ele></ele><time>2014-7-3T1:37:41Z</time></trkpt>
<trkpt lat="46.87541400" lon="7.20120100"><ele></ele><time>2014-7-3T1:37:44Z</time></trkpt>
<trkpt lat="46.87496800" lon="7.20137400"><ele></ele><time>2014-7-3T1:37:47Z</time></trkpt>
<trkpt lat="46.87470900" lon="7.20135300"><ele></ele><time>2014-7-3T1:37:50Z</time></trkpt>
<trkpt lat="46.87364300" lon="7.20115100"><ele></ele><time>2014-7-3T1:37:53Z</time></trkpt>
<trkpt lat="46.87306300" lon="7.20096000"><ele></ele><time>2014-7-3T1:37:56Z</time></trkpt>
<trkpt lat="46.87300600" lon="7.20072900"><ele></ele><time>2014-7-3T1:37:59Z</time></trkpt>
<trkpt lat="46.87295300" lon="7.20020000"><ele></ele><time>2014-7-3T1:38:2Z</time></trkpt>
<trkpt lat="46.87273400" lon="7.20011900"><ele></ele><time>2014-7-3T1:38:5Z</time></trkpt>
<trkpt lat="46.87236900" lon="7.20045600"><ele></ele><time>2014-7-3T1:38:8Z</time></trkpt>
<trkpt lat="46.87163200" lon="7.20064200"><ele></ele><time>2014-7-3T1:38:11Z</time></trkpt>
<trkpt lat="46.87107700" lon="7.20079400"><ele></ele><time>2014-7-3T1:38:14Z</time></trkpt>
<trkpt lat="46.87026200" lon="7.20133100"><ele></ele><time>2014-7-3T1:38:17Z</time></trkpt>
<trkpt lat="46.86955800" lon="7.20163700"><ele></ele><time>2014-7-3T1:38:20Z</time></trkpt>
<trkpt lat="46.86909500" lon="7.20181700"><ele></ele><time>2014-7-3T1:38:23Z</time></trkpt>
<trkpt lat="46.86849600" lon="7.20250500"><ele></ele><time>2014-7-3T1:38:26Z</time></trkpt>
<trkpt lat="46.86806200" lon="7.20263900"><ele></ele><time>2014-7-3T1:38:29Z</time></trkpt>
<trkpt lat="46.86747800" lon="7.20262000"><ele></ele><time>2014-7-3T1:38:32Z</time></trkpt>
<trkpt lat="46.86735700" lon="7.20266100"><ele></ele><time>2014-7-3T1:38:35Z</time></trkpt>
<trkpt lat="46.86689100" lon="7.20314900"><ele></ele><time>2014-7-3T1:38:38Z</time></trkpt>
<trkpt lat="46.86683000" lon="7.20324200"><ele></ele><time>2014-7-3T1:38:41Z</time></trkpt>
<trkpt lat="46.86677000" lon="7.20314500"><ele></ele><time>2014-7-3T1:38:44Z</time></trkpt>
<trkpt lat="46.86672500" lon="7.20219300"><ele></ele><time>2014-7-3T1:38:47Z</time></trkpt>
<trkpt lat="46.86676700" lon="7.20130300"><ele></ele><time>2014-7-3T1:38:50Z</time></trkpt>
<trkpt lat="46.86676200" lon="7.20093100"><ele></ele><time>2014-7-3T1:38:53Z</time></trkpt>
<trkpt lat="46.86659600" lon="7.20052600"><ele></ele><time>2014-7-3T1:38:56Z</time></trkpt>
<trkpt lat="46.86668900" lon="7.19995000"><ele></ele><time>2014-7-3T1:38:59Z</time></trkpt>
<trkpt lat="46.86668900" lon="7.19995000"><ele></ele><time>2014-7-3T1:39:2Z</time></trkpt>
<trkpt lat="46.86683600" lon="7.19990000"><ele></ele><time>2014-7-3T1:39:5Z</time></trkpt>
<trkpt lat="46.86707500" lon="7.19981200"><ele></ele><time>2014-7-3T1:39:8Z</time></trkpt>
<trkpt lat="46.86736500" lon="7.19970800"><ele></ele><time>2014-7-3T1:39:11Z</time></trkpt>
<trkpt lat="46.86758300" lon="7.19962900"><ele></ele><time>2014-7-3T1:39:14Z</time></trkpt>
<trkpt lat="46.86780700" lon="7.19954900"><ele></ele><time>2014-7-3T1:39:17Z</time></trkpt>
<trkpt lat="46.86802900" lon="7.19946500"><ele></ele><time>2014-7-3T1:39:20Z</time></trkpt>
<trkpt lat="46.86825800" lon="7.19937900"><ele></ele><time>2014-7-3T1:39:23Z</time></trkpt>
<trkpt lat="46.86848600" lon="7.19926400"><ele></ele><time>2014-7-3T1:39:26Z</time></trkpt>
<trkpt lat="46.86867700" lon="7.19912000"><ele></ele><time>2014-7-3T1:39:29Z</time></trkpt>
<trkpt lat="46.86891900" lon="7.19892600"><ele></ele><time>2014-7-3T1:39:32Z</time></trkpt>
<trkpt lat="46.86905600" lon="7.19881600"><ele></ele><time>2014-7-3T1:39:35Z</time></trkpt>
<trkpt lat="46.86906800" lon="7.19844600"><ele></ele><time>2014-7-3T1:39:38Z</time></trkpt>
<trkpt lat="46.86893300" lon="7.19809400"><ele></ele><time>2014-7-3T1:39:41Z</time></trkpt>
<trkpt lat="46.86853100" lon="7.19707500"><ele></ele><time>2014-7-3T1:39:44Z</time></trkpt>
<trkpt lat="46.86831500" lon="7.19652500"><ele></ele><time>2014-7-3T1:39:47Z</time></trkpt>
<trkpt lat="46.86813300" lon="7.19648600"><ele></ele><time>2014-7-3T1:39:50Z</time></trkpt>
<trkpt lat="46.86806400" lon="7.19653000"><ele></ele><time>2014-7-3T1:39:53Z</time></trkpt>
<trkpt lat="46.86768500" lon="7.19671500"><ele></ele><time>2014-7-3T1:39:56Z</time></trkpt>
<trkpt lat="46.86755900" lon="7.19674400"><ele></ele><time>2014-7-3T1:39:59Z</time></trkpt>
<trkpt lat="46.86749500" lon="7.19676200"><ele></ele><time>2014-7-3T1:40:2Z</time></trkpt>
<trkpt lat="46.86749500" lon="7.19676400"><ele></ele><time>2014-7-3T1:40:5Z</time></trkpt>
<trkpt lat="46.86745600" lon="7.19665800"><ele></ele><time>2014-7-3T1:40:8Z</time></trkpt>
<trkpt lat="46.86713800" lon="7.19601600"><ele></ele><time>2014-7-3T1:40:11Z</time></trkpt>
<trkpt lat="46.86682100" lon="7.19542200"><ele></ele><time>2014-7-3T1:40:14Z</time></trkpt>
<trkpt lat="46.86669800" lon="7.19502500"><ele></ele><time>2014-7-3T1:40:17Z</time></trkpt>
<trkpt lat="46.86653200" lon="7.19457000"><ele></ele><time>2014-7-3T1:40:20Z</time></trkpt>
<trkpt lat="46.86641000" lon="7.19424800"><ele></ele><time>2014-7-3T1:40:23Z</time></trkpt>
<trkpt lat="46.86635300" lon="7.19407300"><ele></ele><time>2014-7-3T1:40:26Z</time></trkpt>
<trkpt lat="46.86632100" lon="7.19394700"><ele></ele><time>2014-7-3T1:40:29Z</time></trkpt>
<trkpt lat="46.86630400" lon="7.19387400"><ele></ele><time>2014-7-3T1:40:32Z</time></trkpt>
<trkpt lat="46.86628100" lon="7.19353800"><ele></ele><time>2014-7-3T1:40:35Z</time></trkpt>
<trkpt lat="46.86634600" lon="7.19324800"><ele></ele><time>2014-7-3T1:40:38Z</time></trkpt>
<trkpt lat="46.86637100" lon="7.19314100"><ele></ele><time>2014-7-3T1:40:41Z</time></trkpt>
<trkpt lat="46.86638500" lon="7.19265500"><ele></ele><time>2014-7-3T1:40:44Z</time></trkpt>
<trkpt lat="46.86636000" lon="7.19222900"><ele></ele><time>2014-7-3T1:40:47Z</time></trkpt>
<trkpt lat="46.86629600" lon="7.19126100"><ele></ele><time>2014-7-3T1:40:50Z</time></trkpt>
<trkpt lat="46.86629000" lon="7.19111500"><ele></ele><time>2014-7-3T1:40:53Z</time></trkpt>
<trkpt lat="46.86626000" lon="7.19079300"><ele></ele><time>2014-7-3T1:40:56Z</time></trkpt>
<trkpt lat="46.86621200" lon="7.19039200"><ele></ele><time>2014-7-3T1:40:59Z</time></trkpt>
<trkpt lat="46.86620500" lon="7.19027300"><ele></ele><time>2014-7-3T1:41:2Z</time></trkpt>
<trkpt lat="46.86621000" lon="7.19019500"><ele></ele><time>2014-7-3T1:41:5Z</time></trkpt>
<trkpt lat="46.86630000" lon="7.19012400"><ele></ele><time>2014-7-3T1:41:8Z</time></trkpt>
<trkpt lat="46.86647100" lon="7.18972200"><ele></ele><time>2014-7-3T1:41:11Z</time></trkpt>
<trkpt lat="46.86654000" lon="7.18919400"><ele></ele><time>2014-7-3T1:41:14Z</time></trkpt>
<trkpt lat="46.86646500" lon="7.18832000"><ele></ele><time>2014-7-3T1:41:17Z</time></trkpt>
<trkpt lat="46.86652000" lon="7.18810700"><ele></ele><time>2014-7-3T1:41:20Z</time></trkpt>
<trkpt lat="46.86653200" lon="7.18806500"><ele></ele><time>2014-7-3T1:41:23Z</time></trkpt>
<trkpt lat="46.86663900" lon="7.18726600"><ele></ele><time>2014-7-3T1:41:26Z</time></trkpt>
<trkpt lat="46.86663600" lon="7.18699500"><ele></ele><time>2014-7-3T1:41:29Z</time></trkpt>
<trkpt lat="46.86655200" lon="7.18668700"><ele></ele><time>2014-7-3T1:41:32Z</time></trkpt>
<trkpt lat="46.86593100" lon="7.18540100"><ele></ele><time>2014-7-3T1:41:35Z</time></trkpt>
<trkpt lat="46.86583200" lon="7.18526500"><ele></ele><time>2014-7-3T1:41:38Z</time></trkpt>
<trkpt lat="46.86519700" lon="7.18429900"><ele></ele><time>2014-7-3T1:41:41Z</time></trkpt>
<trkpt lat="46.86490200" lon="7.18381100"><ele></ele><time>2014-7-3T1:41:44Z</time></trkpt>
<trkpt lat="46.86474900" lon="7.18367000"><ele></ele><time>2014-7-3T1:41:47Z</time></trkpt>
<trkpt lat="46.86429500" lon="7.18358300"><ele></ele><time>2014-7-3T1:41:50Z</time></trkpt>
<trkpt lat="46.86386800" lon="7.18344300"><ele></ele><time>2014-7-3T1:41:53Z</time></trkpt>
<trkpt lat="46.86332500" lon="7.18305000"><ele></ele><time>2014-7-3T1:41:56Z</time></trkpt>
<trkpt lat="46.86268100" lon="7.18215300"><ele></ele><time>2014-7-3T1:41:59Z</time></trkpt>
<trkpt lat="46.86194800" lon="7.18103000"><ele></ele><time>2014-7-3T1:42:2Z</time></trkpt>
<trkpt lat="46.86149700" lon="7.18033400"><ele></ele><time>2014-7-3T1:42:5Z</time></trkpt>
<trkpt lat="46.86116600" lon="7.18026100"><ele></ele><time>2014-7-3T1:42:8Z</time></trkpt>
<trkpt lat="46.86088700" lon="7.18064200"><ele></ele><time>2014-7-3T1:42:11Z</time></trkpt>
<trkpt lat="46.86065000" lon="7.18094600"><ele></ele><time>2014-7-3T1:42:14Z</time></trkpt>
<trkpt lat="46.86034900" lon="7.18113500"><ele></ele><time>2014-7-3T1:42:17Z</time></trkpt>
<trkpt lat="46.86014300" lon="7.18128000"><ele></ele><time>2014-7-3T1:42:20Z</time></trkpt>
<trkpt lat="46.85941700" lon="7.18188200"><ele></ele><time>2014-7-3T1:42:23Z</time></trkpt>
<trkpt lat="46.85858800" lon="7.18258600"><ele></ele><time>2014-7-3T1:42:26Z</time></trkpt>
<trkpt lat="46.85795800" lon="7.18330400"><ele></ele><time>2014-7-3T1:42:29Z</time></trkpt>
<trkpt lat="46.85714600" lon="7.18454300"><ele></ele><time>2014-7-3T1:42:32Z</time></trkpt>
<trkpt lat="46.85644200" lon="7.18545800"><ele></ele><time>2014-7-3T1:42:35Z</time></trkpt>
<trkpt lat="46.85603700" lon="7.18590400"><ele></ele><time>2014-7-3T1:42:38Z</time></trkpt>
<trkpt lat="46.85599800" lon="7.18593800"><ele></ele><time>2014-7-3T1:42:41Z</time></trkpt>
<trkpt lat="46.85508200" lon="7.18664000"><ele></ele><time>2014-7-3T1:42:44Z</time></trkpt>
<trkpt lat="46.85424900" lon="7.18724400"><ele></ele><time>2014-7-3T1:42:47Z</time></trkpt>
<trkpt lat="46.85428000" lon="7.18709100"><ele></ele><time>2014-7-3T1:42:50Z</time></trkpt>
<trkpt lat="46.85446400" lon="7.18688600"><ele></ele><time>2014-7-3T1:42:53Z</time></trkpt>
<trkpt lat="46.85468300" lon="7.18632100"><ele></ele><time>2014-7-3T1:42:56Z</time></trkpt>
<trkpt lat="46.85474800" lon="7.18609500"><ele></ele><time>2014-7-3T1:42:59Z</time></trkpt>
<trkpt lat="46.85478100" lon="7.18584700"><ele></ele><time>2014-7-3T1:43:2Z</time></trkpt>
<trkpt lat="46.85480400" lon="7.18533400"><ele></ele><time>2014-7-3T1:43:5Z</time></trkpt>
<trkpt lat="46.85484200" lon="7.18473600"><ele></ele><time>2014-7-3T1:43:8Z</time></trkpt>
<trkpt lat="46.85497700" lon="7.18433300"><ele></ele><time>2014-7-3T1:43:11Z</time></trkpt>
<trkpt lat="46.85502900" lon="7.18424800"><ele></ele><time>2014-7-3T1:43:14Z</time></trkpt>
<trkpt lat="46.85513600" lon="7.18408300"><ele></ele><time>2014-7-3T1:43:17Z</time></trkpt>
<trkpt lat="46.85526300" lon="7.18396700"><ele></ele><time>2014-7-3T1:43:20Z</time></trkpt>
<trkpt lat="46.85540800" lon="7.18391200"><ele></ele><time>2014-7-3T1:43:23Z</time></trkpt>
<trkpt lat="46.85566200" lon="7.18369700"><ele></ele><time>2014-7-3T1:43:26Z</time></trkpt>
<trkpt lat="46.85565900" lon="7.18368400"><ele></ele><time>2014-7-3T1:43:29Z</time></trkpt>
<trkpt lat="46.85568900" lon="7.18355100"><ele></ele><time>2014-7-3T1:43:32Z</time></trkpt>
<trkpt lat="46.85565900" lon="7.18368500"><ele></ele><time>2014-7-3T1:43:35Z</time></trkpt>
<trkpt lat="46.85582400" lon="7.18320200"><ele></ele><time>2014-7-3T1:43:38Z</time></trkpt>
<trkpt lat="46.85565900" lon="7.18368300"><ele></ele><time>2014-7-3T1:43:41Z</time></trkpt>
<trkpt lat="46.85612200" lon="7.18239700"><ele></ele><time>2014-7-3T1:43:44Z</time></trkpt>
<trkpt lat="46.85637900" lon="7.18226500"><ele></ele><time>2014-7-3T1:43:47Z</time></trkpt>
<trkpt lat="46.85667600" lon="7.18175700"><ele></ele><time>2014-7-3T1:43:50Z</time></trkpt>
<trkpt lat="46.85679200" lon="7.18164800"><ele></ele><time>2014-7-3T1:43:53Z</time></trkpt>
<trkpt lat="46.85684900" lon="7.18159300"><ele></ele><time>2014-7-3T1:43:56Z</time></trkpt>
<trkpt lat="46.85716600" lon="7.18111100"><ele></ele><time>2014-7-3T1:43:59Z</time></trkpt>
<trkpt lat="46.85727200" lon="7.18108600"><ele></ele><time>2014-7-3T1:44:2Z</time></trkpt>
<trkpt lat="46.85727400" lon="7.18074200"><ele></ele><time>2014-7-3T1:44:5Z</time></trkpt>
<trkpt lat="46.85733900" lon="7.18072000"><ele></ele><time>2014-7-3T1:44:8Z</time></trkpt>
<trkpt lat="46.85730200" lon="7.18076100"><ele></ele><time>2014-7-3T1:44:11Z</time></trkpt>
<trkpt lat="46.85729600" lon="7.18072600"><ele></ele><time>2014-7-3T1:44:14Z</time></trkpt>
<trkpt lat="46.85727700" lon="7.18067300"><ele></ele><time>2014-7-3T1:44:17Z</time></trkpt>
<trkpt lat="46.85720600" lon="7.18051900"><ele></ele><time>2014-7-3T1:44:20Z</time></trkpt>
<trkpt lat="46.85715600" lon="7.18050100"><ele></ele><time>2014-7-3T1:44:23Z</time></trkpt>
<trkpt lat="46.85717400" lon="7.18030300"><ele></ele><time>2014-7-3T1:44:26Z</time></trkpt>
<trkpt lat="46.85716400" lon="7.18025700"><ele></ele><time>2014-7-3T1:44:29Z</time></trkpt>
<trkpt lat="46.85688300" lon="7.18036900"><ele></ele><time>2014-7-3T1:44:32Z</time></trkpt>
<trkpt lat="46.85654500" lon="7.18068100"><ele></ele><time>2014-7-3T1:44:35Z</time></trkpt>
<trkpt lat="46.85634100" lon="7.18093500"><ele></ele><time>2014-7-3T1:44:38Z</time></trkpt>
<trkpt lat="46.85606000" lon="7.18111900"><ele></ele><time>2014-7-3T1:44:41Z</time></trkpt>
<trkpt lat="46.85570100" lon="7.18131000"><ele></ele><time>2014-7-3T1:44:44Z</time></trkpt>
<trkpt lat="46.85518200" lon="7.18165900"><ele></ele><time>2014-7-3T1:44:47Z</time></trkpt>
<trkpt lat="46.85490200" lon="7.18190800"><ele></ele><time>2014-7-3T1:44:50Z</time></trkpt>
<trkpt lat="46.85442600" lon="7.18228400"><ele></ele><time>2014-7-3T1:44:53Z</time></trkpt>
<trkpt lat="46.85382900" lon="7.18239500"><ele></ele><time>2014-7-3T1:44:56Z</time></trkpt>
<trkpt lat="46.85334000" lon="7.18196000"><ele></ele><time>2014-7-3T1:44:59Z</time></trkpt>
<trkpt lat="46.85331900" lon="7.18193300"><ele></ele><time>2014-7-3T1:45:2Z</time></trkpt>
<trkpt lat="46.85310300" lon="7.18139000"><ele></ele><time>2014-7-3T1:45:5Z</time></trkpt>
<trkpt lat="46.85304100" lon="7.18090000"><ele></ele><time>2014-7-3T1:45:8Z</time></trkpt>
<trkpt lat="46.85297500" lon="7.18029200"><ele></ele><time>2014-7-3T1:45:11Z</time></trkpt>
<trkpt lat="46.85285900" lon="7.17913000"><ele></ele><time>2014-7-3T1:45:14Z</time></trkpt>
<trkpt lat="46.85274300" lon="7.17816200"><ele></ele><time>2014-7-3T1:45:17Z</time></trkpt>
<trkpt lat="46.85257800" lon="7.17759700"><ele></ele><time>2014-7-3T1:45:20Z</time></trkpt>
<trkpt lat="46.85189900" lon="7.17630800"><ele></ele><time>2014-7-3T1:45:23Z</time></trkpt>
<trkpt lat="46.85135200" lon="7.17527500"><ele></ele><time>2014-7-3T1:45:26Z</time></trkpt>
<trkpt lat="46.85119000" lon="7.17497300"><ele></ele><time>2014-7-3T1:45:29Z</time></trkpt>
<trkpt lat="46.85117600" lon="7.17492800"><ele></ele><time>2014-7-3T1:45:32Z</time></trkpt>
<trkpt lat="46.85124800" lon="7.17472600"><ele></ele><time>2014-7-3T1:45:35Z</time></trkpt>
<trkpt lat="46.85186900" lon="7.17404900"><ele></ele><time>2014-7-3T1:45:38Z</time></trkpt>
<trkpt lat="46.85246200" lon="7.17350600"><ele></ele><time>2014-7-3T1:45:41Z</time></trkpt>
<trkpt lat="46.85243600" lon="7.17308200"><ele></ele><time>2014-7-3T1:45:44Z</time></trkpt>
<trkpt lat="46.85171800" lon="7.17227900"><ele></ele><time>2014-7-3T1:45:47Z</time></trkpt>
<trkpt lat="46.85119900" lon="7.17164500"><ele></ele><time>2014-7-3T1:45:50Z</time></trkpt>
<trkpt lat="46.85100000" lon="7.17137700"><ele></ele><time>2014-7-3T1:45:53Z</time></trkpt>
<trkpt lat="46.85026700" lon="7.17066600"><ele></ele><time>2014-7-3T1:45:56Z</time></trkpt>
<trkpt lat="46.84991500" lon="7.17031700"><ele></ele><time>2014-7-3T1:45:59Z</time></trkpt>
<trkpt lat="46.84984600" lon="7.17023000"><ele></ele><time>2014-7-3T1:46:2Z</time></trkpt>
<trkpt lat="46.84963800" lon="7.16969100"><ele></ele><time>2014-7-3T1:46:5Z</time></trkpt>
<trkpt lat="46.84949700" lon="7.16904400"><ele></ele><time>2014-7-3T1:46:8Z</time></trkpt>
<trkpt lat="46.84946800" lon="7.16897500"><ele></ele><time>2014-7-3T1:46:11Z</time></trkpt>
<trkpt lat="46.84933700" lon="7.16873900"><ele></ele><time>2014-7-3T1:46:14Z</time></trkpt>
<trkpt lat="46.84882000" lon="7.16808200"><ele></ele><time>2014-7-3T1:46:17Z</time></trkpt>
<trkpt lat="46.84798800" lon="7.16704800"><ele></ele><time>2014-7-3T1:46:20Z</time></trkpt>
<trkpt lat="46.84676200" lon="7.16539500"><ele></ele><time>2014-7-3T1:46:23Z</time></trkpt>
<trkpt lat="46.84566500" lon="7.16399200"><ele></ele><time>2014-7-3T1:46:26Z</time></trkpt>
<trkpt lat="46.84452600" lon="7.16185200"><ele></ele><time>2014-7-3T1:46:29Z</time></trkpt>
<trkpt lat="46.84345800" lon="7.16028700"><ele></ele><time>2014-7-3T1:46:32Z</time></trkpt>
<trkpt lat="46.84330000" lon="7.16003900"><ele></ele><time>2014-7-3T1:46:35Z</time></trkpt>
<trkpt lat="46.84323900" lon="7.15985500"><ele></ele><time>2014-7-3T1:46:38Z</time></trkpt>
<trkpt lat="46.84309900" lon="7.15925500"><ele></ele><time>2014-7-3T1:46:41Z</time></trkpt>
<trkpt lat="46.84306200" lon="7.15905300"><ele></ele><time>2014-7-3T1:46:44Z</time></trkpt>
<trkpt lat="46.84299700" lon="7.15871000"><ele></ele><time>2014-7-3T1:46:47Z</time></trkpt>
<trkpt lat="46.84279100" lon="7.15877800"><ele></ele><time>2014-7-3T1:46:50Z</time></trkpt>
<trkpt lat="46.84249900" lon="7.15887500"><ele></ele><time>2014-7-3T1:46:53Z</time></trkpt>
<trkpt lat="46.84134500" lon="7.15886700"><ele></ele><time>2014-7-3T1:46:56Z</time></trkpt>
<trkpt lat="46.84127200" lon="7.15900200"><ele></ele><time>2014-7-3T1:46:59Z</time></trkpt>
<trkpt lat="46.84042100" lon="7.16004200"><ele></ele><time>2014-7-3T1:47:2Z</time></trkpt>
<trkpt lat="46.84027800" lon="7.16021300"><ele></ele><time>2014-7-3T1:47:5Z</time></trkpt>
<trkpt lat="46.84011900" lon="7.16040400"><ele></ele><time>2014-7-3T1:47:8Z</time></trkpt>
<trkpt lat="46.83952300" lon="7.16112500"><ele></ele><time>2014-7-3T1:47:11Z</time></trkpt>
<trkpt lat="46.83877200" lon="7.16139100"><ele></ele><time>2014-7-3T1:47:14Z</time></trkpt>
<trkpt lat="46.83778700" lon="7.16139300"><ele></ele><time>2014-7-3T1:47:17Z</time></trkpt>
<trkpt lat="46.83743300" lon="7.16132200"><ele></ele><time>2014-7-3T1:47:20Z</time></trkpt>
<trkpt lat="46.83711800" lon="7.16127500"><ele></ele><time>2014-7-3T1:47:23Z</time></trkpt>
<trkpt lat="46.83688500" lon="7.16123600"><ele></ele><time>2014-7-3T1:47:26Z</time></trkpt>
<trkpt lat="46.83663600" lon="7.16119700"><ele></ele><time>2014-7-3T1:47:29Z</time></trkpt>
<trkpt lat="46.83624500" lon="7.16118000"><ele></ele><time>2014-7-3T1:47:32Z</time></trkpt>
<trkpt lat="46.83567500" lon="7.16122900"><ele></ele><time>2014-7-3T1:47:35Z</time></trkpt>
<trkpt lat="46.83539100" lon="7.16122400"><ele></ele><time>2014-7-3T1:47:38Z</time></trkpt>
<trkpt lat="46.83501000" lon="7.16119000"><ele></ele><time>2014-7-3T1:47:41Z</time></trkpt>
<trkpt lat="46.83491800" lon="7.16116500"><ele></ele><time>2014-7-3T1:47:44Z</time></trkpt>
<trkpt lat="46.83458100" lon="7.16100200"><ele></ele><time>2014-7-3T1:47:47Z</time></trkpt>
<trkpt lat="46.83415400" lon="7.16082900"><ele></ele><time>2014-7-3T1:47:50Z</time></trkpt>
<trkpt lat="46.83400300" lon="7.16099100"><ele></ele><time>2014-7-3T1:47:53Z</time></trkpt>
<trkpt lat="46.83383000" lon="7.16112400"><ele></ele><time>2014-7-3T1:47:56Z</time></trkpt>
<trkpt lat="46.83355500" lon="7.16124100"><ele></ele><time>2014-7-3T1:47:59Z</time></trkpt>
<trkpt lat="46.83351000" lon="7.16126500"><ele></ele><time>2014-7-3T1:48:2Z</time></trkpt>
<trkpt lat="46.83337100" lon="7.16140000"><ele></ele><time>2014-7-3T1:48:5Z</time></trkpt>
<trkpt lat="46.83324800" lon="7.16163200"><ele></ele><time>2014-7-3T1:48:8Z</time></trkpt>
<trkpt lat="46.83321600" lon="7.16171500"><ele></ele><time>2014-7-3T1:48:11Z</time></trkpt>
<trkpt lat="46.83295300" lon="7.16232300"><ele></ele><time>2014-7-3T1:48:14Z</time></trkpt>
<trkpt lat="46.83262600" lon="7.16314800"><ele></ele><time>2014-7-3T1:48:17Z</time></trkpt>
<trkpt lat="46.83226600" lon="7.16388800"><ele></ele><time>2014-7-3T1:48:20Z</time></trkpt>
<trkpt lat="46.83223700" lon="7.16391800"><ele></ele><time>2014-7-3T1:48:23Z</time></trkpt>
<trkpt lat="46.83197400" lon="7.16450300"><ele></ele><time>2014-7-3T1:48:26Z</time></trkpt>
<trkpt lat="46.83181100" lon="7.16545700"><ele></ele><time>2014-7-3T1:48:29Z</time></trkpt>
<trkpt lat="46.83158300" lon="7.16632600"><ele></ele><time>2014-7-3T1:48:32Z</time></trkpt>
<trkpt lat="46.83136400" lon="7.16742000"><ele></ele><time>2014-7-3T1:48:35Z</time></trkpt>
<trkpt lat="46.83124400" lon="7.16853700"><ele></ele><time>2014-7-3T1:48:38Z</time></trkpt>
<trkpt lat="46.83115400" lon="7.16958700"><ele></ele><time>2014-7-3T1:48:41Z</time></trkpt>
<trkpt lat="46.83112100" lon="7.17047800"><ele></ele><time>2014-7-3T1:48:44Z</time></trkpt>
<trkpt lat="46.83112800" lon="7.17099000"><ele></ele><time>2014-7-3T1:48:47Z</time></trkpt>
<trkpt lat="46.83088900" lon="7.17088200"><ele></ele><time>2014-7-3T1:48:50Z</time></trkpt>
<trkpt lat="46.83011500" lon="7.17032000"><ele></ele><time>2014-7-3T1:48:53Z</time></trkpt>
<trkpt lat="46.82923100" lon="7.16964900"><ele></ele><time>2014-7-3T1:48:56Z</time></trkpt>
<trkpt lat="46.82917000" lon="7.16960200"><ele></ele><time>2014-7-3T1:48:59Z</time></trkpt>
<trkpt lat="46.82910900" lon="7.16954600"><ele></ele><time>2014-7-3T1:49:2Z</time></trkpt>
<trkpt lat="46.82885500" lon="7.16928700"><ele></ele><time>2014-7-3T1:49:5Z</time></trkpt>
<trkpt lat="46.82857200" lon="7.16901700"><ele></ele><time>2014-7-3T1:49:8Z</time></trkpt>
<trkpt lat="46.82827400" lon="7.16873700"><ele></ele><time>2014-7-3T1:49:11Z</time></trkpt>
<trkpt lat="46.82819800" lon="7.16866800"><ele></ele><time>2014-7-3T1:49:14Z</time></trkpt>
<trkpt lat="46.82795400" lon="7.16849500"><ele></ele><time>2014-7-3T1:49:17Z</time></trkpt>
<trkpt lat="46.82770500" lon="7.16839900"><ele></ele><time>2014-7-3T1:49:20Z</time></trkpt>
<trkpt lat="46.82739800" lon="7.16853500"><ele></ele><time>2014-7-3T1:49:23Z</time></trkpt>
<trkpt lat="46.82739900" lon="7.16855300"><ele></ele><time>2014-7-3T1:49:26Z</time></trkpt>
<trkpt lat="46.82737800" lon="7.16854100"><ele></ele><time>2014-7-3T1:49:29Z</time></trkpt>
<trkpt lat="46.82737800" lon="7.16852600"><ele></ele><time>2014-7-3T1:49:32Z</time></trkpt>
<trkpt lat="46.82679700" lon="7.16818400"><ele></ele><time>2014-7-3T1:49:35Z</time></trkpt>
<trkpt lat="46.82639400" lon="7.16791800"><ele></ele><time>2014-7-3T1:49:38Z</time></trkpt>
<trkpt lat="46.82638800" lon="7.16791500"><ele></ele><time>2014-7-3T1:49:41Z</time></trkpt>
<trkpt lat="46.82427700" lon="7.16679400"><ele></ele><time>2014-7-3T1:49:44Z</time></trkpt>
<trkpt lat="46.82424600" lon="7.16682500"><ele></ele><time>2014-7-3T1:49:47Z</time></trkpt>
<trkpt lat="46.82416300" lon="7.16682400"><ele></ele><time>2014-7-3T1:49:50Z</time></trkpt>
<trkpt lat="46.82369000" lon="7.16685300"><ele></ele><time>2014-7-3T1:49:53Z</time></trkpt>
<trkpt lat="46.82350200" lon="7.16692700"><ele></ele><time>2014-7-3T1:49:56Z</time></trkpt>
<trkpt lat="46.82286900" lon="7.16716100"><ele></ele><time>2014-7-3T1:49:59Z</time></trkpt>
<trkpt lat="46.82250600" lon="7.16712300"><ele></ele><time>2014-7-3T1:50:2Z</time></trkpt>
<trkpt lat="46.82235500" lon="7.16693000"><ele></ele><time>2014-7-3T1:50:5Z</time></trkpt>
<trkpt lat="46.82183500" lon="7.16569600"><ele></ele><time>2014-7-3T1:50:8Z</time></trkpt>
<trkpt lat="46.82149700" lon="7.16474200"><ele></ele><time>2014-7-3T1:50:11Z</time></trkpt>
<trkpt lat="46.82144700" lon="7.16448900"><ele></ele><time>2014-7-3T1:50:14Z</time></trkpt>
<trkpt lat="46.82146100" lon="7.16374700"><ele></ele><time>2014-7-3T1:50:17Z</time></trkpt>
<trkpt lat="46.82147400" lon="7.16317500"><ele></ele><time>2014-7-3T1:50:20Z</time></trkpt>
<trkpt lat="46.82144600" lon="7.16292500"><ele></ele><time>2014-7-3T1:50:23Z</time></trkpt>
<trkpt lat="46.82116400" lon="7.16221600"><ele></ele><time>2014-7-3T1:50:26Z</time></trkpt>
<trkpt lat="46.82092200" lon="7.16188500"><ele></ele><time>2014-7-3T1:50:29Z</time></trkpt>
<trkpt lat="46.82021700" lon="7.16124000"><ele></ele><time>2014-7-3T1:50:32Z</time></trkpt>
<trkpt lat="46.81980200" lon="7.16096100"><ele></ele><time>2014-7-3T1:50:35Z</time></trkpt>
<trkpt lat="46.81945000" lon="7.16074700"><ele></ele><time>2014-7-3T1:50:38Z</time></trkpt>
<trkpt lat="46.81884700" lon="7.16036200"><ele></ele><time>2014-7-3T1:50:41Z</time></trkpt>
<trkpt lat="46.81854100" lon="7.16017300"><ele></ele><time>2014-7-3T1:50:44Z</time></trkpt>
<trkpt lat="46.81766100" lon="7.15997100"><ele></ele><time>2014-7-3T1:50:47Z</time></trkpt>
<trkpt lat="46.81700500" lon="7.15980800"><ele></ele><time>2014-7-3T1:50:50Z</time></trkpt>
<trkpt lat="46.81673400" lon="7.15966300"><ele></ele><time>2014-7-3T1:50:53Z</time></trkpt>
<trkpt lat="46.81647700" lon="7.15963900"><ele></ele><time>2014-7-3T1:50:56Z</time></trkpt>
<trkpt lat="46.81596200" lon="7.16001100"><ele></ele><time>2014-7-3T1:50:59Z</time></trkpt>
<trkpt lat="46.81564800" lon="7.16038300"><ele></ele><time>2014-7-3T1:51:2Z</time></trkpt>
<trkpt lat="46.81561700" lon="7.16057700"><ele></ele><time>2014-7-3T1:51:5Z</time></trkpt>
<trkpt lat="46.81533700" lon="7.16103900"><ele></ele><time>2014-7-3T1:51:8Z</time></trkpt>
<trkpt lat="46.81515000" lon="7.16133800"><ele></ele><time>2014-7-3T1:51:11Z</time></trkpt>
<trkpt lat="46.81494400" lon="7.16163500"><ele></ele><time>2014-7-3T1:51:14Z</time></trkpt>
<trkpt lat="46.81468700" lon="7.16179600"><ele></ele><time>2014-7-3T1:51:17Z</time></trkpt>
<trkpt lat="46.81458900" lon="7.16183300"><ele></ele><time>2014-7-3T1:51:20Z</time></trkpt>
<trkpt lat="46.81420200" lon="7.16188400"><ele></ele><time>2014-7-3T1:51:23Z</time></trkpt>
<trkpt lat="46.81385200" lon="7.16180600"><ele></ele><time>2014-7-3T1:51:26Z</time></trkpt>
<trkpt lat="46.81376100" lon="7.16177900"><ele></ele><time>2014-7-3T1:51:29Z</time></trkpt>
<trkpt lat="46.81360100" lon="7.16154000"><ele></ele><time>2014-7-3T1:51:32Z</time></trkpt>
<trkpt lat="46.81327200" lon="7.16100600"><ele></ele><time>2014-7-3T1:51:35Z</time></trkpt>
<trkpt lat="46.81318300" lon="7.16086100"><ele></ele><time>2014-7-3T1:51:38Z</time></trkpt>
<trkpt lat="46.81305000" lon="7.16053600"><ele></ele><time>2014-7-3T1:51:41Z</time></trkpt>
<trkpt lat="46.81295000" lon="7.16019000"><ele></ele><time>2014-7-3T1:51:44Z</time></trkpt>
<trkpt lat="46.81280300" lon="7.15942200"><ele></ele><time>2014-7-3T1:51:47Z</time></trkpt>
<trkpt lat="46.81275300" lon="7.15916400"><ele></ele><time>2014-7-3T1:51:50Z</time></trkpt>
<trkpt lat="46.81262400" lon="7.15862500"><ele></ele><time>2014-7-3T1:51:53Z</time></trkpt>
<trkpt lat="46.81242400" lon="7.15835000"><ele></ele><time>2014-7-3T1:51:56Z</time></trkpt>
<trkpt lat="46.81191300" lon="7.15798500"><ele></ele><time>2014-7-3T1:51:59Z</time></trkpt>
<trkpt lat="46.81183500" lon="7.15783000"><ele></ele><time>2014-7-3T1:52:2Z</time></trkpt>
<trkpt lat="46.81182500" lon="7.15772800"><ele></ele><time>2014-7-3T1:52:5Z</time></trkpt>
<trkpt lat="46.81158700" lon="7.15764300"><ele></ele><time>2014-7-3T1:52:8Z</time></trkpt>
<trkpt lat="46.81154300" lon="7.15764700"><ele></ele><time>2014-7-3T1:52:11Z</time></trkpt>
<trkpt lat="46.81089500" lon="7.15781400"><ele></ele><time>2014-7-3T1:52:14Z</time></trkpt>
<trkpt lat="46.81032100" lon="7.15800300"><ele></ele><time>2014-7-3T1:52:17Z</time></trkpt>
<trkpt lat="46.80952600" lon="7.15835900"><ele></ele><time>2014-7-3T1:52:20Z</time></trkpt>
<trkpt lat="46.80894700" lon="7.15856000"><ele></ele><time>2014-7-3T1:52:23Z</time></trkpt>
<trkpt lat="46.80842800" lon="7.15893000"><ele></ele><time>2014-7-3T1:52:26Z</time></trkpt>
<trkpt lat="46.80801100" lon="7.15909400"><ele></ele><time>2014-7-3T1:52:29Z</time></trkpt>
<trkpt lat="46.80776400" lon="7.15926700"><ele></ele><time>2014-7-3T1:52:32Z</time></trkpt>
<trkpt lat="46.80766800" lon="7.15961000"><ele></ele><time>2014-7-3T1:52:35Z</time></trkpt>
<trkpt lat="46.80755800" lon="7.15972300"><ele></ele><time>2014-7-3T1:52:38Z</time></trkpt>
<trkpt lat="46.80746600" lon="7.16021100"><ele></ele><time>2014-7-3T1:52:41Z</time></trkpt>
<trkpt lat="46.80727400" lon="7.16049600"><ele></ele><time>2014-7-3T1:52:44Z</time></trkpt>
<trkpt lat="46.80700700" lon="7.16089500"><ele></ele><time>2014-7-3T1:52:47Z</time></trkpt>
<trkpt lat="46.80683300" lon="7.16118200"><ele></ele><time>2014-7-3T1:52:50Z</time></trkpt>
<trkpt lat="46.80666900" lon="7.16153000"><ele></ele><time>2014-7-3T1:52:53Z</time></trkpt>
<trkpt lat="46.80653000" lon="7.16170200"><ele></ele><time>2014-7-3T1:52:56Z</time></trkpt>
<trkpt lat="46.80650500" lon="7.16204300"><ele></ele><time>2014-7-3T1:52:59Z</time></trkpt>
<trkpt lat="46.80651700" lon="7.16209400"><ele></ele><time>2014-7-3T1:53:2Z</time></trkpt>
<trkpt lat="46.80627100" lon="7.16256100"><ele></ele><time>2014-7-3T1:53:5Z</time></trkpt>
<trkpt lat="46.80626400" lon="7.16257100"><ele></ele><time>2014-7-3T1:53:8Z</time></trkpt>
<trkpt lat="46.80626400" lon="7.16257100"><ele></ele><time>2014-7-3T1:53:11Z</time></trkpt>
<trkpt lat="46.80626400" lon="7.16257100"><ele></ele><time>2014-7-3T1:53:14Z</time></trkpt>
<trkpt lat="46.80619700" lon="7.16294800"><ele></ele><time>2014-7-3T1:53:17Z</time></trkpt>
<trkpt lat="46.80584600" lon="7.16381500"><ele></ele><time>2014-7-3T1:53:20Z</time></trkpt>
<trkpt lat="46.80587800" lon="7.16394400"><ele></ele><time>2014-7-3T1:53:23Z</time></trkpt>
<trkpt lat="46.80573700" lon="7.16425600"><ele></ele><time>2014-7-3T1:53:26Z</time></trkpt>
<trkpt lat="46.80579200" lon="7.16433100"><ele></ele><time>2014-7-3T1:53:29Z</time></trkpt>
<trkpt lat="46.80579200" lon="7.16457600"><ele></ele><time>2014-7-3T1:53:32Z</time></trkpt>
<trkpt lat="46.80581000" lon="7.16540800"><ele></ele><time>2014-7-3T1:53:35Z</time></trkpt>
<trkpt lat="46.80701800" lon="7.16750200"><ele></ele><time>2014-7-3T1:53:38Z</time></trkpt>
<trkpt lat="46.80730600" lon="7.16798500"><ele></ele><time>2014-7-3T1:53:41Z</time></trkpt>
<trkpt lat="46.80721600" lon="7.16833200"><ele></ele><time>2014-7-3T1:53:44Z</time></trkpt>
<trkpt lat="46.80673500" lon="7.16868200"><ele></ele><time>2014-7-3T1:53:47Z</time></trkpt>
<trkpt lat="46.80625000" lon="7.16903900"><ele></ele><time>2014-7-3T1:53:50Z</time></trkpt>
<trkpt lat="46.80591000" lon="7.16975900"><ele></ele><time>2014-7-3T1:53:53Z</time></trkpt>
<trkpt lat="46.80588700" lon="7.16980000"><ele></ele><time>2014-7-3T1:53:56Z</time></trkpt>
<trkpt lat="46.80548200" lon="7.17029500"><ele></ele><time>2014-7-3T1:53:59Z</time></trkpt>
<trkpt lat="46.80524100" lon="7.17066100"><ele></ele><time>2014-7-3T1:54:2Z</time></trkpt>
<trkpt lat="46.80546000" lon="7.17123100"><ele></ele><time>2014-7-3T1:54:5Z</time></trkpt>
<trkpt lat="46.80551100" lon="7.17185400"><ele></ele><time>2014-7-3T1:54:8Z</time></trkpt>
<trkpt lat="46.80555700" lon="7.17204800"><ele></ele><time>2014-7-3T1:54:11Z</time></trkpt>
<trkpt lat="46.80525300" lon="7.17228500"><ele></ele><time>2014-7-3T1:54:14Z</time></trkpt>
<trkpt lat="46.80457500" lon="7.17200500"><ele></ele><time>2014-7-3T1:54:17Z</time></trkpt>
<trkpt lat="46.80405300" lon="7.17165100"><ele></ele><time>2014-7-3T1:54:20Z</time></trkpt>
<trkpt lat="46.80364200" lon="7.17123100"><ele></ele><time>2014-7-3T1:54:23Z</time></trkpt>
<trkpt lat="46.80336900" lon="7.17083700"><ele></ele><time>2014-7-3T1:54:26Z</time></trkpt>
<trkpt lat="46.80291000" lon="7.17072200"><ele></ele><time>2014-7-3T1:54:29Z</time></trkpt>
<trkpt lat="46.80269300" lon="7.17096500"><ele></ele><time>2014-7-3T1:54:32Z</time></trkpt>
<trkpt lat="46.80243800" lon="7.17103300"><ele></ele><time>2014-7-3T1:54:35Z</time></trkpt>
<trkpt lat="46.80234400" lon="7.17106200"><ele></ele><time>2014-7-3T1:54:38Z</time></trkpt>
<trkpt lat="46.80249900" lon="7.17132700"><ele></ele><time>2014-7-3T1:54:41Z</time></trkpt>
<trkpt lat="46.80245900" lon="7.17136200"><ele></ele><time>2014-7-3T1:54:44Z</time></trkpt>
<trkpt lat="46.80230100" lon="7.17144900"><ele></ele><time>2014-7-3T1:54:47Z</time></trkpt>
<trkpt lat="46.80212500" lon="7.17145500"><ele></ele><time>2014-7-3T1:54:50Z</time></trkpt>
<trkpt lat="46.80197300" lon="7.17127800"><ele></ele><time>2014-7-3T1:54:53Z</time></trkpt>
<trkpt lat="46.80196100" lon="7.17127700"><ele></ele><time>2014-7-3T1:54:56Z</time></trkpt>
<trkpt lat="46.80185200" lon="7.17118500"><ele></ele><time>2014-7-3T1:54:59Z</time></trkpt>
<trkpt lat="46.80181300" lon="7.17105500"><ele></ele><time>2014-7-3T1:55:2Z</time></trkpt>
<trkpt lat="46.80171700" lon="7.17099600"><ele></ele><time>2014-7-3T1:55:5Z</time></trkpt>
<trkpt lat="46.80162700" lon="7.17085800"><ele></ele><time>2014-7-3T1:55:8Z</time></trkpt>
<trkpt lat="46.80156800" lon="7.17078500"><ele></ele><time>2014-7-3T1:55:11Z</time></trkpt>
<trkpt lat="46.80158200" lon="7.17062800"><ele></ele><time>2014-7-3T1:55:14Z</time></trkpt>
<trkpt lat="46.80153900" lon="7.17053200"><ele></ele><time>2014-7-3T1:55:17Z</time></trkpt>
<trkpt lat="46.80141500" lon="7.17040600"><ele></ele><time>2014-7-3T1:55:20Z</time></trkpt>
<trkpt lat="46.80149100" lon="7.17011200"><ele></ele><time>2014-7-3T1:55:23Z</time></trkpt>
<trkpt lat="46.80166800" lon="7.16973700"><ele></ele><time>2014-7-3T1:55:26Z</time></trkpt>
<trkpt lat="46.80150000" lon="7.16937400"><ele></ele><time>2014-7-3T1:55:29Z</time></trkpt>
<trkpt lat="46.80124000" lon="7.16874300"><ele></ele><time>2014-7-3T1:55:32Z</time></trkpt>
<trkpt lat="46.80094600" lon="7.16876600"><ele></ele><time>2014-7-3T1:55:35Z</time></trkpt>
<trkpt lat="46.80075300" lon="7.16877100"><ele></ele><time>2014-7-3T1:55:38Z</time></trkpt>
<trkpt lat="46.80068200" lon="7.16862900"><ele></ele><time>2014-7-3T1:55:41Z</time></trkpt>
<trkpt lat="46.80048400" lon="7.16838600"><ele></ele><time>2014-7-3T1:55:44Z</time></trkpt>
<trkpt lat="46.80024800" lon="7.16838800"><ele></ele><time>2014-7-3T1:55:47Z</time></trkpt>
<trkpt lat="46.80021700" lon="7.16838300"><ele></ele><time>2014-7-3T1:55:50Z</time></trkpt>
<trkpt lat="46.80006600" lon="7.16834900"><ele></ele><time>2014-7-3T1:55:53Z</time></trkpt>
<trkpt lat="46.79973200" lon="7.16834000"><ele></ele><time>2014-7-3T1:55:56Z</time></trkpt>
<trkpt lat="46.79936900" lon="7.16860200"><ele></ele><time>2014-7-3T1:55:59Z</time></trkpt>
<trkpt lat="46.79902100" lon="7.16891100"><ele></ele><time>2014-7-3T1:56:2Z</time></trkpt>
<trkpt lat="46.79875200" lon="7.16912000"><ele></ele><time>2014-7-3T1:56:5Z</time></trkpt>
<trkpt lat="46.79838900" lon="7.16928700"><ele></ele><time>2014-7-3T1:56:8Z</time></trkpt>
<trkpt lat="46.79784600" lon="7.16945800"><ele></ele><time>2014-7-3T1:56:11Z</time></trkpt>
<trkpt lat="46.79766600" lon="7.16958600"><ele></ele><time>2014-7-3T1:56:14Z</time></trkpt>
<trkpt lat="46.79732700" lon="7.16961900"><ele></ele><time>2014-7-3T1:56:17Z</time></trkpt>
<trkpt lat="46.79693700" lon="7.16965400"><ele></ele><time>2014-7-3T1:56:20Z</time></trkpt>
<trkpt lat="46.79657600" lon="7.16960500"><ele></ele><time>2014-7-3T1:56:23Z</time></trkpt>
<trkpt lat="46.79645100" lon="7.16958800"><ele></ele><time>2014-7-3T1:56:26Z</time></trkpt>
<trkpt lat="46.79640500" lon="7.16955400"><ele></ele><time>2014-7-3T1:56:29Z</time></trkpt>
<trkpt lat="46.79626700" lon="7.16955300"><ele></ele><time>2014-7-3T1:56:32Z</time></trkpt>
<trkpt lat="46.79617000" lon="7.16953300"><ele></ele><time>2014-7-3T1:56:35Z</time></trkpt>
<trkpt lat="46.79575500" lon="7.16951600"><ele></ele><time>2014-7-3T1:56:38Z</time></trkpt>
<trkpt lat="46.79550000" lon="7.16976000"><ele></ele><time>2014-7-3T1:56:41Z</time></trkpt>
<trkpt lat="46.79503800" lon="7.17030700"><ele></ele><time>2014-7-3T1:56:44Z</time></trkpt>
<trkpt lat="46.79482900" lon="7.17032600"><ele></ele><time>2014-7-3T1:56:47Z</time></trkpt>
<trkpt lat="46.79367200" lon="7.17062800"><ele></ele><time>2014-7-3T1:56:50Z</time></trkpt>
<trkpt lat="46.79325300" lon="7.17075600"><ele></ele><time>2014-7-3T1:56:53Z</time></trkpt>
<trkpt lat="46.79302600" lon="7.17094700"><ele></ele><time>2014-7-3T1:56:56Z</time></trkpt>
<trkpt lat="46.79289000" lon="7.17101400"><ele></ele><time>2014-7-3T1:56:59Z</time></trkpt>
<trkpt lat="46.79286700" lon="7.17102300"><ele></ele><time>2014-7-3T1:57:2Z</time></trkpt>
<trkpt lat="46.79254500" lon="7.17117900"><ele></ele><time>2014-7-3T1:57:5Z</time></trkpt>
<trkpt lat="46.79244000" lon="7.17134100"><ele></ele><time>2014-7-3T1:57:8Z</time></trkpt>
<trkpt lat="46.79228200" lon="7.17165900"><ele></ele><time>2014-7-3T1:57:11Z</time></trkpt>
<trkpt lat="46.79220800" lon="7.17176700"><ele></ele><time>2014-7-3T1:57:14Z</time></trkpt>
<trkpt lat="46.79213000" lon="7.17183400"><ele></ele><time>2014-7-3T1:57:17Z</time></trkpt>
<trkpt lat="46.79189800" lon="7.17203100"><ele></ele><time>2014-7-3T1:57:20Z</time></trkpt>
<trkpt lat="46.79169600" lon="7.17220600"><ele></ele><time>2014-7-3T1:57:23Z</time></trkpt>
<trkpt lat="46.79156600" lon="7.17236900"><ele></ele><time>2014-7-3T1:57:26Z</time></trkpt>
<trkpt lat="46.79128500" lon="7.17277000"><ele></ele><time>2014-7-3T1:57:29Z</time></trkpt>
<trkpt lat="46.79107300" lon="7.17300000"><ele></ele><time>2014-7-3T1:57:32Z</time></trkpt>
<trkpt lat="46.79069700" lon="7.17320200"><ele></ele><time>2014-7-3T1:57:35Z</time></trkpt>
<trkpt lat="46.79043800" lon="7.17340600"><ele></ele><time>2014-7-3T1:57:38Z</time></trkpt>
<trkpt lat="46.79011600" lon="7.17322800"><ele></ele><time>2014-7-3T1:57:41Z</time></trkpt>
<trkpt lat="46.78981800" lon="7.17314600"><ele></ele><time>2014-7-3T1:57:44Z</time></trkpt>
<trkpt lat="46.78959400" lon="7.17289400"><ele></ele><time>2014-7-3T1:57:47Z</time></trkpt>
<trkpt lat="46.78959900" lon="7.17283300"><ele></ele><time>2014-7-3T1:57:50Z</time></trkpt>
<trkpt lat="46.78963100" lon="7.17262500"><ele></ele><time>2014-7-3T1:57:53Z</time></trkpt>
<trkpt lat="46.78946500" lon="7.17229000"><ele></ele><time>2014-7-3T1:57:56Z</time></trkpt>
<trkpt lat="46.78893000" lon="7.17213800"><ele></ele><time>2014-7-3T1:57:59Z</time></trkpt>
<trkpt lat="46.78834900" lon="7.17200000"><ele></ele><time>2014-7-3T1:58:2Z</time></trkpt>
<trkpt lat="46.78791500" lon="7.17211000"><ele></ele><time>2014-7-3T1:58:5Z</time></trkpt>
<trkpt lat="46.78777700" lon="7.17211300"><ele></ele><time>2014-7-3T1:58:8Z</time></trkpt>
<trkpt lat="46.78743700" lon="7.17175600"><ele></ele><time>2014-7-3T1:58:11Z</time></trkpt>
<trkpt lat="46.78732700" lon="7.17157500"><ele></ele><time>2014-7-3T1:58:14Z</time></trkpt>
<trkpt lat="46.78713200" lon="7.17129900"><ele></ele><time>2014-7-3T1:58:17Z</time></trkpt>
<trkpt lat="46.78696700" lon="7.17107500"><ele></ele><time>2014-7-3T1:58:20Z</time></trkpt>
<trkpt lat="46.78674100" lon="7.17096000"><ele></ele><time>2014-7-3T1:58:23Z</time></trkpt>
<trkpt lat="46.78650500" lon="7.17098100"><ele></ele><time>2014-7-3T1:58:26Z</time></trkpt>
<trkpt lat="46.78597600" lon="7.17132600"><ele></ele><time>2014-7-3T1:58:29Z</time></trkpt>
<trkpt lat="46.78542700" lon="7.17183700"><ele></ele><time>2014-7-3T1:58:32Z</time></trkpt>
<trkpt lat="46.78514200" lon="7.17209700"><ele></ele><time>2014-7-3T1:58:35Z</time></trkpt>
<trkpt lat="46.78475900" lon="7.17244200"><ele></ele><time>2014-7-3T1:58:38Z</time></trkpt>
<trkpt lat="46.78430900" lon="7.17275800"><ele></ele><time>2014-7-3T1:58:41Z</time></trkpt>
<trkpt lat="46.78424400" lon="7.17283200"><ele></ele><time>2014-7-3T1:58:44Z</time></trkpt>
<trkpt lat="46.78399400" lon="7.17333100"><ele></ele><time>2014-7-3T1:58:47Z</time></trkpt>
<trkpt lat="46.78378600" lon="7.17399600"><ele></ele><time>2014-7-3T1:58:50Z</time></trkpt>
<trkpt lat="46.78356400" lon="7.17481300"><ele></ele><time>2014-7-3T1:58:53Z</time></trkpt>
<trkpt lat="46.78325700" lon="7.17585000"><ele></ele><time>2014-7-3T1:58:56Z</time></trkpt>
<trkpt lat="46.78305100" lon="7.17679000"><ele></ele><time>2014-7-3T1:58:59Z</time></trkpt>
<trkpt lat="46.78299000" lon="7.17780000"><ele></ele><time>2014-7-3T1:59:2Z</time></trkpt>
<trkpt lat="46.78285700" lon="7.17896900"><ele></ele><time>2014-7-3T1:59:5Z</time></trkpt>
<trkpt lat="46.78266700" lon="7.17995900"><ele></ele><time>2014-7-3T1:59:8Z</time></trkpt>
<trkpt lat="46.78263600" lon="7.18006600"><ele></ele><time>2014-7-3T1:59:11Z</time></trkpt>
<trkpt lat="46.78246200" lon="7.18025300"><ele></ele><time>2014-7-3T1:59:14Z</time></trkpt>
<trkpt lat="46.78229200" lon="7.18046900"><ele></ele><time>2014-7-3T1:59:17Z</time></trkpt>
<trkpt lat="46.78208400" lon="7.18183800"><ele></ele><time>2014-7-3T1:59:20Z</time></trkpt>
<trkpt lat="46.78174600" lon="7.18294800"><ele></ele><time>2014-7-3T1:59:23Z</time></trkpt>
<trkpt lat="46.78173400" lon="7.18300200"><ele></ele><time>2014-7-3T1:59:26Z</time></trkpt>
<trkpt lat="46.78169300" lon="7.18338700"><ele></ele><time>2014-7-3T1:59:29Z</time></trkpt>
<trkpt lat="46.78166000" lon="7.18406900"><ele></ele><time>2014-7-3T1:59:32Z</time></trkpt>
<trkpt lat="46.78163000" lon="7.18449700"><ele></ele><time>2014-7-3T1:59:35Z</time></trkpt>
<trkpt lat="46.78152900" lon="7.18469700"><ele></ele><time>2014-7-3T1:59:38Z</time></trkpt>
<trkpt lat="46.78120800" lon="7.18461800"><ele></ele><time>2014-7-3T1:59:41Z</time></trkpt>
<trkpt lat="46.78079900" lon="7.18457700"><ele></ele><time>2014-7-3T1:59:44Z</time></trkpt>
<trkpt lat="46.78009500" lon="7.18446900"><ele></ele><time>2014-7-3T1:59:47Z</time></trkpt>
<trkpt lat="46.77931400" lon="7.18438000"><ele></ele><time>2014-7-3T1:59:50Z</time></trkpt>
<trkpt lat="46.77873000" lon="7.18434500"><ele></ele><time>2014-7-3T1:59:53Z</time></trkpt>
<trkpt lat="46.77821400" lon="7.18411100"><ele></ele><time>2014-7-3T1:59:56Z</time></trkpt>
<trkpt lat="46.77735700" lon="7.18426600"><ele></ele><time>2014-7-3T1:59:59Z</time></trkpt>
<trkpt lat="46.77669100" lon="7.18453000"><ele></ele><time>2014-7-3T2:0:2Z</time></trkpt>
<trkpt lat="46.77654600" lon="7.18456700"><ele></ele><time>2014-7-3T2:0:5Z</time></trkpt>
<trkpt lat="46.77599200" lon="7.18489500"><ele></ele><time>2014-7-3T2:0:8Z</time></trkpt>
<trkpt lat="46.77592000" lon="7.18495000"><ele></ele><time>2014-7-3T2:0:11Z</time></trkpt>
<trkpt lat="46.77535300" lon="7.18555700"><ele></ele><time>2014-7-3T2:0:14Z</time></trkpt>
<trkpt lat="46.77531200" lon="7.18560400"><ele></ele><time>2014-7-3T2:0:17Z</time></trkpt>
<trkpt lat="46.77504200" lon="7.18583800"><ele></ele><time>2014-7-3T2:0:20Z</time></trkpt>
<trkpt lat="46.77486600" lon="7.18604300"><ele></ele><time>2014-7-3T2:0:23Z</time></trkpt>
<trkpt lat="46.77484300" lon="7.18616000"><ele></ele><time>2014-7-3T2:0:26Z</time></trkpt>
<trkpt lat="46.77475400" lon="7.18738600"><ele></ele><time>2014-7-3T2:0:29Z</time></trkpt>
<trkpt lat="46.77467500" lon="7.18827800"><ele></ele><time>2014-7-3T2:0:32Z</time></trkpt>
<trkpt lat="46.77441100" lon="7.18876900"><ele></ele><time>2014-7-3T2:0:35Z</time></trkpt>
<trkpt lat="46.77421100" lon="7.18932200"><ele></ele><time>2014-7-3T2:0:38Z</time></trkpt>
<trkpt lat="46.77378100" lon="7.18958000"><ele></ele><time>2014-7-3T2:0:41Z</time></trkpt>
<trkpt lat="46.77373800" lon="7.18955100"><ele></ele><time>2014-7-3T2:0:44Z</time></trkpt>
<trkpt lat="46.77364300" lon="7.18948400"><ele></ele><time>2014-7-3T2:0:47Z</time></trkpt>
<trkpt lat="46.77326000" lon="7.18968800"><ele></ele><time>2014-7-3T2:0:50Z</time></trkpt>
<trkpt lat="46.77320100" lon="7.18990800"><ele></ele><time>2014-7-3T2:0:53Z</time></trkpt>
<trkpt lat="46.77304500" lon="7.19080600"><ele></ele><time>2014-7-3T2:0:56Z</time></trkpt>
<trkpt lat="46.77279000" lon="7.19158400"><ele></ele><time>2014-7-3T2:0:59Z</time></trkpt>
<trkpt lat="46.77262700" lon="7.19206500"><ele></ele><time>2014-7-3T2:1:2Z</time></trkpt>
<trkpt lat="46.77261800" lon="7.19215800"><ele></ele><time>2014-7-3T2:1:5Z</time></trkpt>
<trkpt lat="46.77253400" lon="7.19215600"><ele></ele><time>2014-7-3T2:1:8Z</time></trkpt>
<trkpt lat="46.77232300" lon="7.19221200"><ele></ele><time>2014-7-3T2:1:11Z</time></trkpt>
<trkpt lat="46.77233600" lon="7.19224200"><ele></ele><time>2014-7-3T2:1:14Z</time></trkpt>
</trkseg></trk></gpx>